Wetterdaten: Dienstag, 23.06.2015
Datum Zeit Temp. Aussen +5cm Feuchte Auss BlattFeu 1 Luftdruck Regen Sonnenschein Regendauer Solar Windben
23.06.2015 00:00 9,4 C 8,3 C 96 % 15 lf 1006,6 hPa 0,0 l/m 0 min 0 min 0 W/m 16,7 km/h (3 Bft)
23.06.2015 00:03 9,4 C 8,3 C 96 % 15 lf 1006,7 hPa 0,0 l/m 0 min 0 min 0 W/m 14,6 km/h (3 Bft)
23.06.2015 00:05 9,4 C 8,3 C 96 % 15 lf 1006,7 hPa 0,0 l/m 0 min 0 min 0 W/m 16,7 km/h (3 Bft)
23.06.2015 00:06 9,4 C 8,3 C 96 % 15 lf 1006,7 hPa 0,0 l/m 0 min 0 min 0 W/m 10,5 km/h (2 Bft)
23.06.2015 00:08 9,4 C 8,3 C 96 % 15 lf 1006,7 hPa 0,0 l/m 0 min 0 min 0 W/m 14,6 km/h (3 Bft)
23.06.2015 00:10 9,4 C 8,3 C 96 % 15 lf 1006,7 hPa 0,0 l/m 0 min 0 min 0 W/m 14,6 km/h (3 Bft)
23.06.2015 00:12 9,3 C 8,3 C 96 % 15 lf 1006,7 hPa 0,0 l/m 0 min 0 min 0 W/m 16,7 km/h (3 Bft)
23.06.2015 00:14 9,3 C 8,3 C 96 % 15 lf 1006,7 hPa 0,0 l/m 0 min 0 min 0 W/m 12,6 km/h (3 Bft)
23.06.2015 00:16 9,3 C 8,3 C 96 % 15 lf 1006,8 hPa 0,0 l/m 0 min 0 min 0 W/m 14,6 km/h (3 Bft)
23.06.2015 00:18 9,3 C 8,3 C 96 % 15 lf 1006,7 hPa 0,0 l/m 0 min 0 min 0 W/m 12,6 km/h (3 Bft)
23.06.2015 00:20 9,3 C 8,3 C 96 % 15 lf 1006,8 hPa 0,0 l/m 0 min 0 min 0 W/m 14,6 km/h (3 Bft)
23.06.2015 00:22 9,3 C 8,3 C 96 % 15 lf 1006,8 hPa 0,0 l/m 0 min 0 min 0 W/m 14,6 km/h (3 Bft)
23.06.2015 00:24 9,3 C 8,3 C 96 % 15 lf 1006,7 hPa 0,0 l/m 0 min 0 min 0 W/m 12,6 km/h (3 Bft)
23.06.2015 00:26 9,3 C 8,3 C 96 % 15 lf 1006,8 hPa 0,0 l/m 0 min 0 min 0 W/m 14,6 km/h (3 Bft)
23.06.2015 00:28 9,3 C 8,3 C 96 % 15 lf 1006,8 hPa 0,0 l/m 0 min 0 min 0 W/m 12,6 km/h (3 Bft)
23.06.2015 00:30 9,3 C 8,3 C 96 % 15 lf 1006,8 hPa 0,0 l/m 0 min 0 min 0 W/m 10,5 km/h (2 Bft)
23.06.2015 00:32 9,3 C 8,3 C 96 % 15 lf 1006,8 hPa 0,0 l/m 0 min 0 min 0 W/m 14,6 km/h (3 Bft)
23.06.2015 00:34 9,3 C 8,3 C 96 % 15 lf 1006,8 hPa 0,0 l/m 0 min 0 min 0 W/m 18,8 km/h (3 Bft)
23.06.2015 00:36 9,3 C 8,3 C 97 % 15 lf 1006,7 hPa 0,0 l/m 0 min 0 min 0 W/m 14,6 km/h (3 Bft)
23.06.2015 00:38 9,3 C 8,3 C 97 % 15 lf 1006,8 hPa 0,0 l/m 0 min 0 min 0 W/m 10,5 km/h (2 Bft)
23.06.2015 00:40 9,3 C 8,3 C 97 % 15 lf 1006,8 hPa 0,0 l/m 0 min 0 min 0 W/m 12,6 km/h (3 Bft)
23.06.2015 00:42 9,3 C 8,3 C 97 % 15 lf 1006,8 hPa 0,0 l/m 0 min 0 min 0 W/m 14,6 km/h (3 Bft)
23.06.2015 00:44 9,4 C 8,3 C 97 % 15 lf 1006,8 hPa 0,0 l/m 0 min 0 min 0 W/m 12,6 km/h (3 Bft)
23.06.2015 00:46 9,4 C 8,3 C 97 % 15 lf 1006,8 hPa 0,0 l/m 0 min 0 min 0 W/m 12,6 km/h (3 Bft)
23.06.2015 00:48 9,4 C 8,9 C 97 % 15 lf 1006,8 hPa 0,0 l/m 0 min 0 min 0 W/m 12,6 km/h (3 Bft)
23.06.2015 00:50 9,4 C 8,3 C 97 % 15 lf 1006,8 hPa 0,0 l/m 0 min 0 min 0 W/m 10,5 km/h (2 Bft)
23.06.2015 00:52 9,4 C 8,9 C 97 % 15 lf 1006,8 hPa 0,0 l/m 0 min 0 min 0 W/m 10,5 km/h (2 Bft)
23.06.2015 00:54 9,4 C 8,9 C 97 % 15 lf 1006,8 hPa 0,0 l/m 0 min 0 min 0 W/m 8,4 km/h (2 Bft)
23.06.2015 00:56 9,4 C 8,9 C 97 % 15 lf 1006,9 hPa 0,0 l/m 0 min 0 min 0 W/m 14,6 km/h (3 Bft)
23.06.2015 00:58 9,5 C 8,9 C 97 % 15 lf 1006,9 hPa 0,0 l/m 0 min 0 min 0 W/m 6,3 km/h (2 Bft)
23.06.2015 01:00 9,5 C 8,9 C 97 % 15 lf 1006,9 hPa 0,0 l/m 0 min 0 min 0 W/m 6,3 km/h (2 Bft)
23.06.2015 01:02 9,5 C 8,9 C 97 % 15 lf 1006,9 hPa 0,0 l/m 0 min 0 min 0 W/m 12,6 km/h (3 Bft)
23.06.2015 01:04 9,5 C 8,9 C 97 % 15 lf 1006,9 hPa 0,0 l/m 0 min 0 min 0 W/m 12,6 km/h (3 Bft)
23.06.2015 01:06 9,5 C 8,9 C 97 % 15 lf 1006,9 hPa 0,0 l/m 0 min 0 min 0 W/m 12,6 km/h (3 Bft)
23.06.2015 01:08 9,5 C 8,9 C 97 % 15 lf 1006,9 hPa 0,0 l/m 0 min 0 min 0 W/m 20,9 km/h (4 Bft)
23.06.2015 01:10 9,6 C 8,9 C 97 % 15 lf 1007,0 hPa 0,0 l/m 0 min 0 min 0 W/m 14,6 km/h (3 Bft)
23.06.2015 01:12 9,6 C 8,9 C 97 % 15 lf 1006,9 hPa 0,0 l/m 0 min 0 min 0 W/m 8,4 km/h (2 Bft)
23.06.2015 01:14 9,6 C 8,9 C 97 % 15 lf 1006,9 hPa 0,0 l/m 0 min 0 min 0 W/m 8,4 km/h (2 Bft)
23.06.2015 01:16 9,6 C 8,9 C 97 % 15 lf 1006,9 hPa 0,0 l/m 0 min 0 min 0 W/m 10,5 km/h (2 Bft)
23.06.2015 01:18 9,6 C 8,9 C 97 % 15 lf 1006,9 hPa 0,0 l/m 0 min 0 min 0 W/m 10,5 km/h (2 Bft)
23.06.2015 01:20 9,6 C 8,9 C 97 % 15 lf 1006,9 hPa 0,0 l/m 0 min 0 min 0 W/m 12,6 km/h (3 Bft)
23.06.2015 01:22 9,6 C 8,9 C 97 % 15 lf 1007,0 hPa 0,0 l/m 0 min 0 min 0 W/m 14,6 km/h (3 Bft)
23.06.2015 01:24 9,6 C 8,9 C 97 % 15 lf 1007,0 hPa 0,0 l/m 0 min 0 min 0 W/m 12,6 km/h (3 Bft)
23.06.2015 01:26 9,6 C 8,9 C 97 % 15 lf 1007,0 hPa 0,0 l/m 0 min 0 min 0 W/m 12,6 km/h (3 Bft)
23.06.2015 01:28 9,6 C 8,9 C 97 % 15 lf 1007,0 hPa 0,0 l/m 0 min 0 min 0 W/m 8,4 km/h (2 Bft)
23.06.2015 01:30 9,6 C 8,9 C 97 % 15 lf 1007,0 hPa 0,0 l/m 0 min 0 min 0 W/m 12,6 km/h (3 Bft)
23.06.2015 01:32 9,6 C 8,9 C 97 % 15 lf 1007,1 hPa 0,0 l/m 0 min 0 min 0 W/m 12,6 km/h (3 Bft)
23.06.2015 01:34 9,6 C 8,9 C 97 % 15 lf 1007,1 hPa 0,0 l/m 0 min 0 min 0 W/m 14,6 km/h (3 Bft)
23.06.2015 01:36 9,6 C 8,9 C 97 % 15 lf 1007,1 hPa 0,0 l/m 0 min 0 min 0 W/m 10,5 km/h (2 Bft)
23.06.2015 01:38 9,6 C 8,9 C 97 % 15 lf 1007,1 hPa 0,0 l/m 0 min 0 min 0 W/m 10,5 km/h (2 Bft)
23.06.2015 01:40 9,6 C 8,9 C 97 % 15 lf 1007,1 hPa 0,0 l/m 0 min 0 min 0 W/m 10,5 km/h (2 Bft)
23.06.2015 01:42 9,6 C 8,3 C 97 % 15 lf 1007,1 hPa 0,0 l/m 0 min 0 min 0 W/m 8,4 km/h (2 Bft)
23.06.2015 01:44 9,6 C 8,3 C 97 % 15 lf 1007,1 hPa 0,0 l/m 0 min 0 min 0 W/m 12,6 km/h (3 Bft)
23.06.2015 01:46 9,6 C 8,3 C 97 % 15 lf 1007,1 hPa 0,0 l/m 0 min 0 min 0 W/m 14,6 km/h (3 Bft)
23.06.2015 01:48 9,6 C 8,3 C 97 % 15 lf 1007,2 hPa 0,0 l/m 0 min 0 min 0 W/m 14,6 km/h (3 Bft)
23.06.2015 01:50 9,5 C 8,3 C 97 % 15 lf 1007,2 hPa 0,0 l/m 0 min 0 min 0 W/m 14,6 km/h (3 Bft)
23.06.2015 01:52 9,5 C 8,3 C 97 % 15 lf 1007,2 hPa 0,0 l/m 0 min 0 min 0 W/m 10,5 km/h (2 Bft)
23.06.2015 01:54 9,5 C 8,3 C 97 % 15 lf 1007,2 hPa 0,0 l/m 0 min 0 min 0 W/m 14,6 km/h (3 Bft)
23.06.2015 01:56 9,5 C 8,3 C 97 % 15 lf 1007,2 hPa 0,0 l/m 0 min 0 min 0 W/m 14,6 km/h (3 Bft)
23.06.2015 01:58 9,4 C 8,3 C 97 % 15 lf 1007,2 hPa 0,0 l/m 0 min 0 min 0 W/m 18,8 km/h (3 Bft)
23.06.2015 02:00 9,4 C 8,3 C 97 % 15 lf 1007,3 hPa 0,0 l/m 0 min 0 min 0 W/m 16,7 km/h (3 Bft)
23.06.2015 02:02 9,4 C 8,3 C 97 % 15 lf 1007,3 hPa 0,0 l/m 0 min 0 min 0 W/m 16,7 km/h (3 Bft)
23.06.2015 02:04 9,4 C 8,3 C 97 % 15 lf 1007,2 hPa 0,0 l/m 0 min 0 min 0 W/m 10,5 km/h (2 Bft)
23.06.2015 02:06 9,4 C 8,3 C 97 % 15 lf 1007,2 hPa 0,0 l/m 0 min 0 min 0 W/m 10,5 km/h (2 Bft)
23.06.2015 02:08 9,3 C 8,3 C 97 % 15 lf 1007,2 hPa 0,0 l/m 0 min 0 min 0 W/m 12,6 km/h (3 Bft)
23.06.2015 02:10 9,3 C 8,3 C 97 % 15 lf 1007,2 hPa 0,0 l/m 0 min 0 min 0 W/m 14,6 km/h (3 Bft)
23.06.2015 02:12 9,3 C 8,3 C 97 % 15 lf 1007,2 hPa 0,0 l/m 0 min 0 min 0 W/m 14,6 km/h (3 Bft)
23.06.2015 02:14 9,3 C 8,3 C 97 % 15 lf 1007,3 hPa 0,0 l/m 0 min 0 min 0 W/m 12,6 km/h (3 Bft)
23.06.2015 02:16 9,3 C 8,3 C 97 % 15 lf 1007,3 hPa 0,0 l/m 0 min 0 min 0 W/m 14,6 km/h (3 Bft)
23.06.2015 02:18 9,2 C 8,3 C 97 % 15 lf 1007,4 hPa 0,0 l/m 0 min 0 min 0 W/m 14,6 km/h (3 Bft)
23.06.2015 02:20 9,2 C 8,3 C 97 % 15 lf 1007,4 hPa 0,0 l/m 0 min 0 min 0 W/m 18,8 km/h (3 Bft)
23.06.2015 02:22 9,2 C 8,3 C 97 % 15 lf 1007,5 hPa 0,0 l/m 0 min 0 min 0 W/m 14,6 km/h (3 Bft)
23.06.2015 02:24 9,2 C 8,3 C 97 % 15 lf 1007,5 hPa 0,0 l/m 0 min 0 min 0 W/m 14,6 km/h (3 Bft)
23.06.2015 02:26 9,2 C 8,3 C 97 % 15 lf 1007,5 hPa 0,0 l/m 0 min 0 min 0 W/m 12,6 km/h (3 Bft)
23.06.2015 02:28 9,2 C 8,3 C 97 % 15 lf 1007,6 hPa 0,0 l/m 0 min 0 min 0 W/m 10,5 km/h (2 Bft)
23.06.2015 02:30 9,2 C 8,3 C 97 % 15 lf 1007,6 hPa 0,0 l/m 0 min 0 min 0 W/m 12,6 km/h (3 Bft)
23.06.2015 02:32 9,2 C 8,3 C 97 % 15 lf 1007,6 hPa 0,0 l/m 0 min 0 min 0 W/m 16,7 km/h (3 Bft)
23.06.2015 02:34 9,2 C 8,3 C 97 % 15 lf 1007,6 hPa 0,0 l/m 0 min 0 min 0 W/m 12,6 km/h (3 Bft)
23.06.2015 02:36 9,2 C 8,3 C 97 % 15 lf 1007,7 hPa 0,0 l/m 0 min 0 min 0 W/m 18,8 km/h (3 Bft)
23.06.2015 02:38 9,2 C 8,3 C 97 % 15 lf 1007,6 hPa 0,0 l/m 0 min 0 min 0 W/m 10,5 km/h (2 Bft)
23.06.2015 02:40 9,2 C 8,3 C 97 % 15 lf 1007,6 hPa 0,0 l/m 0 min 0 min 0 W/m 12,6 km/h (3 Bft)
23.06.2015 02:42 9,2 C 8,3 C 97 % 15 lf 1007,7 hPa 0,0 l/m 0 min 0 min 0 W/m 14,6 km/h (3 Bft)
23.06.2015 02:44 9,2 C 8,3 C 97 % 15 lf 1007,7 hPa 0,0 l/m 0 min 0 min 0 W/m 14,6 km/h (3 Bft)
23.06.2015 02:46 9,2 C 8,3 C 97 % 15 lf 1007,7 hPa 0,0 l/m 0 min 0 min 0 W/m 10,5 km/h (2 Bft)
23.06.2015 02:48 9,3 C 8,3 C 97 % 15 lf 1007,7 hPa 0,0 l/m 0 min 0 min 0 W/m 10,5 km/h (2 Bft)
23.06.2015 02:50 9,3 C 8,3 C 97 % 15 lf 1007,7 hPa 0,0 l/m 0 min 0 min 0 W/m 14,6 km/h (3 Bft)
23.06.2015 02:52 9,3 C 8,3 C 97 % 15 lf 1007,7 hPa 0,0 l/m 0 min 0 min 0 W/m 12,6 km/h (3 Bft)
23.06.2015 02:54 9,3 C 8,3 C 97 % 15 lf 1007,8 hPa 0,0 l/m 0 min 0 min 0 W/m 14,6 km/h (3 Bft)
23.06.2015 02:56 9,3 C 8,9 C 97 % 15 lf 1007,8 hPa 0,0 l/m 0 min 0 min 0 W/m 12,6 km/h (3 Bft)
23.06.2015 02:58 9,3 C 8,3 C 97 % 15 lf 1007,8 hPa 0,0 l/m 0 min 0 min 0 W/m 12,6 km/h (3 Bft)
23.06.2015 03:00 9,3 C 8,3 C 97 % 15 lf 1007,8 hPa 0,0 l/m 0 min 0 min 0 W/m 14,6 km/h (3 Bft)
23.06.2015 03:02 9,3 C 8,9 C 97 % 15 lf 1007,8 hPa 0,0 l/m 0 min 0 min 0 W/m 10,5 km/h (2 Bft)
23.06.2015 03:04 9,3 C 8,9 C 97 % 15 lf 1007,9 hPa 0,0 l/m 0 min 0 min 0 W/m 12,6 km/h (3 Bft)
23.06.2015 03:06 9,4 C 8,9 C 97 % 15 lf 1007,9 hPa 0,0 l/m 0 min 0 min 0 W/m 14,6 km/h (3 Bft)
23.06.2015 03:08 9,4 C 8,9 C 97 % 15 lf 1007,9 hPa 0,0 l/m 0 min 0 min 0 W/m 12,6 km/h (3 Bft)
23.06.2015 03:10 9,4 C 8,9 C 97 % 15 lf 1007,9 hPa 0,0 l/m 0 min 0 min 0 W/m 10,5 km/h (2 Bft)
23.06.2015 03:12 9,4 C 8,9 C 97 % 15 lf 1008,0 hPa 0,0 l/m 0 min 0 min 0 W/m 12,6 km/h (3 Bft)
23.06.2015 03:14 9,4 C 8,9 C 98 % 15 lf 1008,1 hPa 0,0 l/m 0 min 0 min 0 W/m 12,6 km/h (3 Bft)
23.06.2015 03:16 9,4 C 8,9 C 98 % 15 lf 1008,1 hPa 0,0 l/m 0 min 0 min 0 W/m 12,6 km/h (3 Bft)
23.06.2015 03:18 9,4 C 8,9 C 98 % 15 lf 1008,0 hPa 0,0 l/m 0 min 0 min 0 W/m 14,6 km/h (3 Bft)
23.06.2015 03:20 9,4 C 8,9 C 98 % 15 lf 1008,0 hPa 0,0 l/m 0 min 0 min 0 W/m 16,7 km/h (3 Bft)
23.06.2015 03:22 9,4 C 8,9 C 98 % 15 lf 1008,0 hPa 0,0 l/m 0 min 0 min 0 W/m 16,7 km/h (3 Bft)
23.06.2015 03:24 9,4 C 8,9 C 98 % 15 lf 1008,0 hPa 0,0 l/m 0 min 0 min 0 W/m 14,6 km/h (3 Bft)
23.06.2015 03:26 9,4 C 8,9 C 98 % 15 lf 1007,9 hPa 0,0 l/m 0 min 0 min 0 W/m 12,6 km/h (3 Bft)
23.06.2015 03:28 9,5 C 8,9 C 98 % 15 lf 1008,0 hPa 0,0 l/m 0 min 0 min 0 W/m 10,5 km/h (2 Bft)
23.06.2015 03:30 9,5 C 8,9 C 98 % 15 lf 1008,0 hPa 0,0 l/m 0 min 0 min 0 W/m 14,6 km/h (3 Bft)
23.06.2015 03:32 9,5 C 8,9 C 98 % 15 lf 1008,0 hPa 0,0 l/m 0 min 0 min 0 W/m 14,6 km/h (3 Bft)
23.06.2015 03:34 9,5 C 8,9 C 98 % 15 lf 1008,1 hPa 0,0 l/m 0 min 0 min 0 W/m 14,6 km/h (3 Bft)
23.06.2015 03:36 9,5 C 8,9 C 98 % 15 lf 1008,2 hPa 0,0 l/m 0 min 0 min 0 W/m 12,6 km/h (3 Bft)
23.06.2015 03:38 9,5 C 8,9 C 98 % 15 lf 1008,2 hPa 0,0 l/m 0 min 0 min 0 W/m 14,6 km/h (3 Bft)
23.06.2015 03:40 9,5 C 8,9 C 98 % 15 lf 1008,2 hPa 0,0 l/m 0 min 0 min 0 W/m 14,6 km/h (3 Bft)
23.06.2015 03:42 9,5 C 8,9 C 98 % 15 lf 1008,2 hPa 0,0 l/m 0 min 0 min 0 W/m 12,6 km/h (3 Bft)
23.06.2015 03:44 9,5 C 8,9 C 98 % 15 lf 1008,1 hPa 0,0 l/m 0 min 0 min 0 W/m 12,6 km/h (3 Bft)
23.06.2015 03:46 9,5 C 8,9 C 98 % 15 lf 1008,3 hPa 0,0 l/m 0 min 0 min 0 W/m 16,7 km/h (3 Bft)
23.06.2015 03:48 9,5 C 8,3 C 98 % 15 lf 1008,2 hPa 0,0 l/m 0 min 0 min 0 W/m 10,5 km/h (2 Bft)
23.06.2015 03:50 9,5 C 8,3 C 98 % 15 lf 1008,2 hPa 0,0 l/m 0 min 0 min 0 W/m 10,5 km/h (2 Bft)
23.06.2015 03:52 9,5 C 8,3 C 98 % 15 lf 1008,2 hPa 0,0 l/m 0 min 0 min 0 W/m 14,6 km/h (3 Bft)
23.06.2015 03:54 9,5 C 8,9 C 98 % 15 lf 1008,2 hPa 0,0 l/m 0 min 0 min 0 W/m 10,5 km/h (2 Bft)
23.06.2015 03:56 9,5 C 8,9 C 98 % 15 lf 1008,2 hPa 0,0 l/m 0 min 0 min 0 W/m 10,5 km/h (2 Bft)
23.06.2015 03:58 9,5 C 8,9 C 98 % 15 lf 1008,2 hPa 0,0 l/m 0 min 0 min 0 W/m 18,8 km/h (3 Bft)
23.06.2015 04:00 9,4 C 8,3 C 98 % 15 lf 1008,3 hPa 0,0 l/m 0 min 0 min 0 W/m 14,6 km/h (3 Bft)
23.06.2015 04:02 9,5 C 8,3 C 98 % 15 lf 1008,3 hPa 0,0 l/m 0 min 0 min 0 W/m 10,5 km/h (2 Bft)
23.06.2015 04:04 9,5 C 8,3 C 98 % 15 lf 1008,3 hPa 0,0 l/m 0 min 0 min 0 W/m 10,5 km/h (2 Bft)
23.06.2015 04:06 9,4 C 8,9 C 98 % 15 lf 1008,3 hPa 0,0 l/m 0 min 0 min 0 W/m 12,6 km/h (3 Bft)
23.06.2015 04:08 9,5 C 8,9 C 98 % 15 lf 1008,2 hPa 0,0 l/m 0 min 0 min 0 W/m 10,5 km/h (2 Bft)
23.06.2015 04:10 9,5 C 8,9 C 98 % 15 lf 1008,3 hPa 0,0 l/m 0 min 0 min 0 W/m 10,5 km/h (2 Bft)
23.06.2015 04:12 9,5 C 8,9 C 98 % 15 lf 1008,3 hPa 0,0 l/m 0 min 0 min 0 W/m 10,5 km/h (2 Bft)
23.06.2015 04:14 9,5 C 8,9 C 98 % 15 lf 1008,2 hPa 0,0 l/m 0 min 0 min 0 W/m 16,7 km/h (3 Bft)
23.06.2015 04:16 9,5 C 8,9 C 98 % 15 lf 1008,3 hPa 0,0 l/m 0 min 0 min 0 W/m 10,5 km/h (2 Bft)
23.06.2015 04:18 9,5 C 8,9 C 98 % 15 lf 1008,3 hPa 0,0 l/m 0 min 0 min 0 W/m 10,5 km/h (2 Bft)
23.06.2015 04:20 9,5 C 8,9 C 98 % 15 lf 1008,3 hPa 0,0 l/m 0 min 0 min 0 W/m 12,6 km/h (3 Bft)
23.06.2015 04:22 9,5 C 8,9 C 98 % 15 lf 1008,3 hPa 0,0 l/m 0 min 0 min 0 W/m 8,4 km/h (2 Bft)
23.06.2015 04:24 9,4 C 8,9 C 98 % 15 lf 1008,4 hPa 0,0 l/m 0 min 0 min 0 W/m 12,6 km/h (3 Bft)
23.06.2015 04:26 9,5 C 8,9 C 98 % 15 lf 1008,4 hPa 0,0 l/m 0 min 0 min 0 W/m 10,5 km/h (2 Bft)
23.06.2015 04:28 9,5 C 8,9 C 98 % 15 lf 1008,4 hPa 0,0 l/m 0 min 0 min 0 W/m 8,4 km/h (2 Bft)
23.06.2015 04:30 9,5 C 8,9 C 98 % 15 lf 1008,4 hPa 0,0 l/m 0 min 0 min 0 W/m 12,6 km/h (3 Bft)
23.06.2015 04:32 9,5 C 8,9 C 98 % 15 lf 1008,4 hPa 0,0 l/m 0 min 0 min 0 W/m 14,6 km/h (3 Bft)
23.06.2015 04:34 9,5 C 8,9 C 98 % 15 lf 1008,4 hPa 0,0 l/m 0 min 0 min 0 W/m 10,5 km/h (2 Bft)
23.06.2015 04:36 9,5 C 8,9 C 98 % 15 lf 1008,5 hPa 0,0 l/m 0 min 0 min 0 W/m 10,5 km/h (2 Bft)
23.06.2015 04:38 9,5 C 8,9 C 98 % 15 lf 1008,5 hPa 0,0 l/m 0 min 0 min 0 W/m 10,5 km/h (2 Bft)
23.06.2015 04:40 9,5 C 8,9 C 98 % 15 lf 1008,5 hPa 0,0 l/m 0 min 0 min 0 W/m 8,4 km/h (2 Bft)
23.06.2015 04:42 9,5 C 8,9 C 98 % 15 lf 1008,5 hPa 0,0 l/m 0 min 0 min 0 W/m 12,6 km/h (3 Bft)
23.06.2015 04:44 9,5 C 8,9 C 98 % 15 lf 1008,6 hPa 0,0 l/m 0 min 0 min 0 W/m 10,5 km/h (2 Bft)
23.06.2015 04:46 9,5 C 8,9 C 98 % 15 lf 1008,6 hPa 0,0 l/m 0 min 0 min 0 W/m 12,6 km/h (3 Bft)
23.06.2015 04:48 9,5 C 8,9 C 98 % 15 lf 1008,6 hPa 0,0 l/m 0 min 0 min 0 W/m 10,5 km/h (2 Bft)
23.06.2015 04:50 9,5 C 8,9 C 98 % 15 lf 1008,7 hPa 0,0 l/m 0 min 0 min 0 W/m 8,4 km/h (2 Bft)
23.06.2015 04:52 9,5 C 8,9 C 98 % 15 lf 1008,7 hPa 0,0 l/m 0 min 0 min 0 W/m 10,5 km/h (2 Bft)
23.06.2015 04:54 9,5 C 8,9 C 98 % 15 lf 1008,7 hPa 0,0 l/m 0 min 0 min 0 W/m 10,5 km/h (2 Bft)
23.06.2015 04:56 9,5 C 8,9 C 98 % 15 lf 1008,8 hPa 0,0 l/m 0 min 0 min 0 W/m 12,6 km/h (3 Bft)
23.06.2015 04:58 9,5 C 8,9 C 98 % 15 lf 1008,7 hPa 0,0 l/m 0 min 0 min 0 W/m 10,5 km/h (2 Bft)
23.06.2015 05:00 9,5 C 8,9 C 98 % 15 lf 1008,7 hPa 0,0 l/m 0 min 0 min 0 W/m 12,6 km/h (3 Bft)
23.06.2015 05:02 9,5 C 8,9 C 98 % 15 lf 1008,8 hPa 0,0 l/m 0 min 0 min 0 W/m 10,5 km/h (2 Bft)
23.06.2015 05:04 9,6 C 8,9 C 98 % 15 lf 1008,8 hPa 0,0 l/m 0 min 0 min 0 W/m 10,5 km/h (2 Bft)
23.06.2015 05:06 9,6 C 8,9 C 98 % 15 lf 1008,8 hPa 0,0 l/m 0 min 2 min 0 W/m 8,4 km/h (2 Bft)
23.06.2015 05:08 9,6 C 8,9 C 98 % 15 lf 1008,9 hPa 0,2 l/m 0 min 2 min 0 W/m 8,4 km/h (2 Bft)
23.06.2015 05:10 9,6 C 8,9 C 98 % 15 lf 1008,9 hPa 0,0 l/m 0 min 2 min 0 W/m 8,4 km/h (2 Bft)
23.06.2015 05:12 9,6 C 8,9 C 98 % 15 lf 1008,8 hPa 0,0 l/m 0 min 2 min 0 W/m 6,3 km/h (2 Bft)
23.06.2015 05:14 9,6 C 8,9 C 98 % 15 lf 1008,8 hPa 0,0 l/m 0 min 2 min 0 W/m 10,5 km/h (2 Bft)
23.06.2015 05:16 9,6 C 8,9 C 98 % 15 lf 1008,9 hPa 0,0 l/m 0 min 0 min 0 W/m 12,6 km/h (3 Bft)
23.06.2015 05:18 9,6 C 8,9 C 98 % 15 lf 1008,8 hPa 0,0 l/m 0 min 0 min 0 W/m 8,4 km/h (2 Bft)
23.06.2015 05:20 9,6 C 8,9 C 98 % 15 lf 1008,9 hPa 0,0 l/m 0 min 0 min 0 W/m 8,4 km/h (2 Bft)
23.06.2015 05:22 9,6 C 8,9 C 98 % 15 lf 1008,8 hPa 0,0 l/m 0 min 0 min 0 W/m 8,4 km/h (2 Bft)
23.06.2015 05:24 9,6 C 8,9 C 98 % 15 lf 1008,8 hPa 0,0 l/m 0 min 0 min 0 W/m 8,4 km/h (2 Bft)
23.06.2015 05:26 9,6 C 8,9 C 98 % 15 lf 1008,9 hPa 0,0 l/m 0 min 0 min 5 W/m 8,4 km/h (2 Bft)
23.06.2015 05:28 9,6 C 8,9 C 98 % 15 lf 1008,9 hPa 0,0 l/m 0 min 0 min 5 W/m 10,5 km/h (2 Bft)
23.06.2015 05:30 9,6 C 8,9 C 98 % 15 lf 1008,9 hPa 0,0 l/m 0 min 0 min 5 W/m 8,4 km/h (2 Bft)
23.06.2015 05:32 9,6 C 8,9 C 98 % 15 lf 1008,9 hPa 0,0 l/m 0 min 0 min 5 W/m 12,6 km/h (3 Bft)
23.06.2015 05:34 9,6 C 8,9 C 98 % 15 lf 1008,9 hPa 0,0 l/m 0 min 0 min 7 W/m 10,5 km/h (2 Bft)
23.06.2015 05:36 9,6 C 8,9 C 98 % 15 lf 1008,9 hPa 0,0 l/m 0 min 0 min 8 W/m 10,5 km/h (2 Bft)
23.06.2015 05:38 9,6 C 8,9 C 98 % 15 lf 1008,9 hPa 0,0 l/m 0 min 0 min 9 W/m 10,5 km/h (2 Bft)
23.06.2015 05:40 9,6 C 8,9 C 98 % 15 lf 1008,9 hPa 0,0 l/m 0 min 2 min 9 W/m 8,4 km/h (2 Bft)
23.06.2015 05:42 9,6 C 8,9 C 98 % 15 lf 1008,9 hPa 0,0 l/m 0 min 2 min 11 W/m 10,5 km/h (2 Bft)
23.06.2015 05:44 9,6 C 8,9 C 98 % 15 lf 1008,9 hPa 0,0 l/m 0 min 2 min 12 W/m 6,3 km/h (2 Bft)
23.06.2015 05:46 9,6 C 8,9 C 98 % 15 lf 1008,9 hPa 0,0 l/m 0 min 2 min 13 W/m 8,4 km/h (2 Bft)
23.06.2015 05:48 9,7 C 8,9 C 98 % 15 lf 1008,9 hPa 0,0 l/m 0 min 2 min 15 W/m 10,5 km/h (2 Bft)
23.06.2015 05:50 9,7 C 8,9 C 98 % 15 lf 1008,9 hPa 0,0 l/m 0 min 2 min 16 W/m 10,5 km/h (2 Bft)
23.06.2015 05:52 9,7 C 8,9 C 98 % 15 lf 1008,9 hPa 0,4 l/m 0 min 2 min 18 W/m 14,6 km/h (3 Bft)
23.06.2015 05:54 9,7 C 8,9 C 98 % 15 lf 1009,0 hPa 0,2 l/m 0 min 2 min 21 W/m 16,7 km/h (3 Bft)
23.06.2015 05:56 9,7 C 8,9 C 98 % 15 lf 1008,9 hPa 0,2 l/m 0 min 2 min 27 W/m 14,6 km/h (3 Bft)
23.06.2015 05:58 9,7 C 8,9 C 98 % 15 lf 1008,9 hPa 0,0 l/m 0 min 2 min 31 W/m 10,5 km/h (2 Bft)
23.06.2015 06:00 9,7 C 8,9 C 98 % 15 lf 1008,9 hPa 0,0 l/m 0 min 2 min 33 W/m 16,7 km/h (3 Bft)
23.06.2015 06:03 9,7 C 8,9 C 98 % 15 lf 1009,0 hPa 0,0 l/m 0 min 2 min 30 W/m 8,4 km/h (2 Bft)
23.06.2015 06:05 9,8 C 8,9 C 98 % 15 lf 1009,0 hPa 0,0 l/m 0 min 2 min 31 W/m 8,4 km/h (2 Bft)
23.06.2015 06:06 9,8 C 8,9 C 98 % 15 lf 1009,0 hPa 0,0 l/m 0 min 1 min 24 W/m 10,5 km/h (2 Bft)
23.06.2015 06:08 9,8 C 8,9 C 98 % 15 lf 1009,2 hPa 0,0 l/m 0 min 2 min 23 W/m 8,4 km/h (2 Bft)
23.06.2015 06:10 9,8 C 8,9 C 98 % 15 lf 1009,2 hPa 0,0 l/m 0 min 2 min 20 W/m 10,5 km/h (2 Bft)
23.06.2015 06:12 9,8 C 8,9 C 98 % 15 lf 1009,2 hPa 0,0 l/m 0 min 2 min 18 W/m 10,5 km/h (2 Bft)
23.06.2015 06:14 9,8 C 8,9 C 98 % 15 lf 1009,2 hPa 0,0 l/m 0 min 2 min 16 W/m 10,5 km/h (2 Bft)
23.06.2015 06:16 9,9 C 8,9 C 98 % 15 lf 1009,3 hPa 0,0 l/m 0 min 2 min 14 W/m 12,6 km/h (3 Bft)
23.06.2015 06:18 9,9 C 8,9 C 98 % 15 lf 1009,3 hPa 0,0 l/m 0 min 2 min 16 W/m 10,5 km/h (2 Bft)
23.06.2015 06:20 9,9 C 8,9 C 98 % 15 lf 1009,3 hPa 0,2 l/m 0 min 2 min 17 W/m 8,4 km/h (2 Bft)
23.06.2015 06:22 9,9 C 9,4 C 98 % 15 lf 1009,3 hPa 0,0 l/m 0 min 2 min 20 W/m 6,3 km/h (2 Bft)
23.06.2015 06:24 9,9 C 9,4 C 98 % 15 lf 1009,3 hPa 0,0 l/m 0 min 2 min 23 W/m 10,5 km/h (2 Bft)
23.06.2015 06:26 9,9 C 9,4 C 98 % 15 lf 1009,3 hPa 0,0 l/m 0 min 2 min 25 W/m 10,5 km/h (2 Bft)
23.06.2015 06:28 9,9 C 9,4 C 98 % 15 lf 1009,3 hPa 0,0 l/m 0 min 0 min 26 W/m 10,5 km/h (2 Bft)
23.06.2015 06:30 9,9 C 9,4 C 98 % 15 lf 1009,4 hPa 0,0 l/m 0 min 0 min 26 W/m 8,4 km/h (2 Bft)
23.06.2015 06:32 10,0 C 9,4 C 98 % 15 lf 1009,3 hPa 0,0 l/m 0 min 0 min 28 W/m 10,5 km/h (2 Bft)
23.06.2015 06:34 10,0 C 9,4 C 98 % 15 lf 1009,4 hPa 0,0 l/m 0 min 0 min 27 W/m 8,4 km/h (2 Bft)
23.06.2015 06:36 10,0 C 9,4 C 98 % 15 lf 1009,4 hPa 0,0 l/m 0 min 0 min 26 W/m 8,4 km/h (2 Bft)
23.06.2015 06:38 10,0 C 9,4 C 98 % 15 lf 1009,4 hPa 0,0 l/m 0 min 0 min 31 W/m 12,6 km/h (3 Bft)
23.06.2015 06:40 10,0 C 9,4 C 98 % 15 lf 1009,5 hPa 0,0 l/m 0 min 0 min 32 W/m 12,6 km/h (3 Bft)
23.06.2015 06:42 10,1 C 9,4 C 98 % 15 lf 1009,5 hPa 0,0 l/m 0 min 0 min 33 W/m 8,4 km/h (2 Bft)
23.06.2015 06:44 10,1 C 9,4 C 98 % 15 lf 1009,5 hPa 0,0 l/m 0 min 0 min 38 W/m 10,5 km/h (2 Bft)
23.06.2015 06:46 10,1 C 9,4 C 98 % 15 lf 1009,4 hPa 0,0 l/m 0 min 0 min 40 W/m 14,6 km/h (3 Bft)
23.06.2015 06:48 10,1 C 9,4 C 98 % 15 lf 1009,5 hPa 0,0 l/m 0 min 0 min 36 W/m 8,4 km/h (2 Bft)
23.06.2015 06:50 10,1 C 9,4 C 98 % 15 lf 1009,5 hPa 0,0 l/m 0 min 0 min 30 W/m 10,5 km/h (2 Bft)
23.06.2015 06:52 10,1 C 9,4 C 98 % 15 lf 1009,5 hPa 0,0 l/m 0 min 0 min 29 W/m 14,6 km/h (3 Bft)
23.06.2015 06:54 10,2 C 9,4 C 98 % 15 lf 1009,5 hPa 0,0 l/m 0 min 0 min 35 W/m 6,3 km/h (2 Bft)
23.06.2015 06:56 10,2 C 9,4 C 98 % 15 lf 1009,5 hPa 0,0 l/m 0 min 0 min 42 W/m 16,7 km/h (3 Bft)
23.06.2015 06:58 10,2 C 9,4 C 98 % 15 lf 1009,5 hPa 0,0 l/m 0 min 0 min 46 W/m 20,9 km/h (4 Bft)
23.06.2015 07:00 10,2 C 9,4 C 98 % 15 lf 1009,5 hPa 0,0 l/m 0 min 2 min 54 W/m 23,0 km/h (4 Bft)
23.06.2015 07:02 10,2 C 9,4 C 98 % 15 lf 1009,4 hPa 0,0 l/m 0 min 2 min 57 W/m 12,6 km/h (3 Bft)
23.06.2015 07:04 10,2 C 9,4 C 98 % 15 lf 1009,4 hPa 0,0 l/m 0 min 2 min 59 W/m 14,6 km/h (3 Bft)
23.06.2015 07:06 10,2 C 9,4 C 98 % 15 lf 1009,5 hPa 0,0 l/m 0 min 2 min 62 W/m 16,7 km/h (3 Bft)
23.06.2015 07:08 10,2 C 9,4 C 98 % 15 lf 1009,5 hPa 0,2 l/m 0 min 2 min 68 W/m 16,7 km/h (3 Bft)
23.06.2015 07:10 10,2 C 9,4 C 98 % 15 lf 1009,5 hPa 0,0 l/m 0 min 2 min 77 W/m 10,5 km/h (2 Bft)
23.06.2015 07:12 10,3 C 9,4 C 98 % 15 lf 1009,6 hPa 0,0 l/m 0 min 2 min 88 W/m 10,5 km/h (2 Bft)
23.06.2015 07:14 10,3 C 9,4 C 98 % 15 lf 1009,5 hPa 0,0 l/m 0 min 2 min 99 W/m 10,5 km/h (2 Bft)
23.06.2015 07:16 10,3 C 9,4 C 98 % 15 lf 1009,5 hPa 0,0 l/m 0 min 2 min 106 W/m 16,7 km/h (3 Bft)
23.06.2015 07:18 10,3 C 9,4 C 98 % 15 lf 1009,7 hPa 0,0 l/m 0 min 0 min 109 W/m 10,5 km/h (2 Bft)
23.06.2015 07:20 10,4 C 9,4 C 98 % 15 lf 1009,6 hPa 0,0 l/m 0 min 0 min 119 W/m 12,6 km/h (3 Bft)
23.06.2015 07:22 10,4 C 9,4 C 98 % 15 lf 1009,6 hPa 0,0 l/m 2 min 0 min 156 W/m 10,5 km/h (2 Bft)
23.06.2015 07:24 10,4 C 9,4 C 98 % 15 lf 1009,6 hPa 0,0 l/m 2 min 0 min 204 W/m 12,6 km/h (3 Bft)
23.06.2015 07:26 10,4 C 9,4 C 98 % 15 lf 1009,6 hPa 0,0 l/m 2 min 0 min 187 W/m 16,7 km/h (3 Bft)
23.06.2015 07:28 10,4 C 9,4 C 98 % 15 lf 1009,7 hPa 0,0 l/m 2 min 0 min 218 W/m 16,7 km/h (3 Bft)
23.06.2015 07:30 10,5 C 9,4 C 98 % 15 lf 1009,7 hPa 0,0 l/m 2 min 0 min 284 W/m 10,5 km/h (2 Bft)
23.06.2015 07:32 10,5 C 10,0 C 98 % 15 lf 1009,7 hPa 0,0 l/m 2 min 0 min 250 W/m 14,6 km/h (3 Bft)
23.06.2015 07:34 10,6 C 10,0 C 98 % 15 lf 1009,8 hPa 0,0 l/m 2 min 0 min 288 W/m 18,8 km/h (3 Bft)
23.06.2015 07:36 10,6 C 10,0 C 98 % 15 lf 1009,8 hPa 0,0 l/m 2 min 0 min 177 W/m 12,6 km/h (3 Bft)
23.06.2015 07:38 10,7 C 10,0 C 98 % 15 lf 1009,9 hPa 0,0 l/m 2 min 0 min 243 W/m 12,6 km/h (3 Bft)
23.06.2015 07:40 10,7 C 10,0 C 99 % 15 lf 1009,8 hPa 0,0 l/m 2 min 0 min 265 W/m 20,9 km/h (4 Bft)
23.06.2015 07:42 10,8 C 10,0 C 99 % 15 lf 1009,9 hPa 0,0 l/m 2 min 0 min 273 W/m 12,6 km/h (3 Bft)
23.06.2015 07:44 10,8 C 10,0 C 99 % 15 lf 1009,9 hPa 0,0 l/m 0 min 0 min 138 W/m 18,8 km/h (3 Bft)
23.06.2015 07:46 10,9 C 10,6 C 98 % 15 lf 1009,9 hPa 0,0 l/m 0 min 0 min 150 W/m 14,6 km/h (3 Bft)
23.06.2015 07:48 10,9 C 10,6 C 98 % 15 lf 1009,9 hPa 0,0 l/m 0 min 0 min 153 W/m 18,8 km/h (3 Bft)
23.06.2015 07:50 11,0 C 10,6 C 98 % 15 lf 1009,9 hPa 0,0 l/m 0 min 0 min 130 W/m 12,6 km/h (3 Bft)
23.06.2015 07:52 11,0 C 10,6 C 98 % 15 lf 1009,9 hPa 0,0 l/m 0 min 0 min 115 W/m 20,9 km/h (4 Bft)
23.06.2015 07:54 11,1 C 10,0 C 99 % 15 lf 1010,0 hPa 0,0 l/m 0 min 0 min 123 W/m 18,8 km/h (3 Bft)
23.06.2015 07:56 11,1 C 10,0 C 99 % 15 lf 1010,0 hPa 0,0 l/m 0 min 0 min 114 W/m 12,6 km/h (3 Bft)
23.06.2015 07:58 11,1 C 10,0 C 99 % 15 lf 1010,0 hPa 0,0 l/m 0 min 0 min 127 W/m 16,7 km/h (3 Bft)
23.06.2015 08:00 11,1 C 10,0 C 99 % 15 lf 1010,0 hPa 0,0 l/m 0 min 0 min 133 W/m 18,8 km/h (3 Bft)
23.06.2015 08:02 11,1 C 10,0 C 99 % 15 lf 1010,1 hPa 0,0 l/m 0 min 0 min 136 W/m 18,8 km/h (3 Bft)
23.06.2015 08:04 11,1 C 10,6 C 99 % 15 lf 1010,0 hPa 0,0 l/m 0 min 0 min 141 W/m 10,5 km/h (2 Bft)
23.06.2015 08:06 11,1 C 10,0 C 99 % 15 lf 1010,1 hPa 0,0 l/m 0 min 0 min 148 W/m 10,5 km/h (2 Bft)
23.06.2015 08:08 11,1 C 10,6 C 99 % 15 lf 1010,1 hPa 0,0 l/m 0 min 0 min 147 W/m 16,7 km/h (3 Bft)
23.06.2015 08:10 11,1 C 10,6 C 99 % 15 lf 1010,1 hPa 0,0 l/m 0 min 0 min 133 W/m 16,7 km/h (3 Bft)
23.06.2015 08:12 11,1 C 10,6 C 99 % 15 lf 1010,2 hPa 0,0 l/m 0 min 0 min 170 W/m 14,6 km/h (3 Bft)
23.06.2015 08:14 11,2 C 10,6 C 99 % 15 lf 1010,2 hPa 0,0 l/m 0 min 0 min 169 W/m 12,6 km/h (3 Bft)
23.06.2015 08:16 11,2 C 10,6 C 99 % 15 lf 1010,3 hPa 0,0 l/m 0 min 0 min 128 W/m 10,5 km/h (2 Bft)
23.06.2015 08:18 11,2 C 10,6 C 99 % 15 lf 1010,2 hPa 0,0 l/m 0 min 0 min 170 W/m 16,7 km/h (3 Bft)
23.06.2015 08:20 11,2 C 10,6 C 99 % 15 lf 1010,2 hPa 0,0 l/m 0 min 0 min 195 W/m 10,5 km/h (2 Bft)
23.06.2015 08:22 11,2 C 10,6 C 99 % 15 lf 1010,3 hPa 0,0 l/m 2 min 0 min 484 W/m 16,7 km/h (3 Bft)
23.06.2015 08:24 11,3 C 10,6 C 99 % 15 lf 1010,3 hPa 0,0 l/m 2 min 0 min 537 W/m 12,6 km/h (3 Bft)
23.06.2015 08:26 11,3 C 10,6 C 99 % 15 lf 1010,4 hPa 0,0 l/m 2 min 0 min 211 W/m 16,7 km/h (3 Bft)
23.06.2015 08:28 11,3 C 10,6 C 99 % 15 lf 1010,3 hPa 0,0 l/m 2 min 0 min 308 W/m 12,6 km/h (3 Bft)
23.06.2015 08:30 11,4 C 10,6 C 99 % 15 lf 1010,3 hPa 0,0 l/m 2 min 0 min 542 W/m 18,8 km/h (3 Bft)
23.06.2015 08:32 11,4 C 10,6 C 99 % 15 lf 1010,4 hPa 0,0 l/m 2 min 0 min 581 W/m 18,8 km/h (3 Bft)
23.06.2015 08:34 11,5 C 10,6 C 99 % 15 lf 1010,4 hPa 0,0 l/m 2 min 0 min 467 W/m 16,7 km/h (3 Bft)
23.06.2015 08:36 11,5 C 10,6 C 99 % 15 lf 1010,4 hPa 0,0 l/m 0 min 0 min 140 W/m 16,7 km/h (3 Bft)
23.06.2015 08:38 11,5 C 10,6 C 99 % 15 lf 1010,4 hPa 0,0 l/m 0 min 0 min 195 W/m 16,7 km/h (3 Bft)
23.06.2015 08:40 11,5 C 10,6 C 99 % 15 lf 1010,4 hPa 0,0 l/m 2 min 0 min 235 W/m 18,8 km/h (3 Bft)
23.06.2015 08:42 11,4 C 10,6 C 99 % 15 lf 1010,4 hPa 0,0 l/m 2 min 0 min 258 W/m 20,9 km/h (4 Bft)
23.06.2015 08:44 11,4 C 10,6 C 99 % 15 lf 1010,4 hPa 0,0 l/m 2 min 0 min 286 W/m 23,0 km/h (4 Bft)
23.06.2015 08:46 11,5 C 10,0 C 99 % 15 lf 1010,4 hPa 0,0 l/m 2 min 0 min 256 W/m 16,7 km/h (3 Bft)
23.06.2015 08:48 11,5 C 10,6 C 99 % 15 lf 1010,4 hPa 0,0 l/m 2 min 0 min 237 W/m 18,8 km/h (3 Bft)
23.06.2015 08:50 11,5 C 10,6 C 99 % 15 lf 1010,5 hPa 0,0 l/m 0 min 0 min 224 W/m 20,9 km/h (4 Bft)
23.06.2015 08:52 11,5 C 10,6 C 99 % 14 lf 1010,4 hPa 0,0 l/m 0 min 0 min 218 W/m 16,7 km/h (3 Bft)
23.06.2015 08:54 11,6 C 10,6 C 99 % 14 lf 1010,5 hPa 0,0 l/m 2 min 0 min 525 W/m 16,7 km/h (3 Bft)
23.06.2015 08:56 11,6 C 10,6 C 99 % 12 lf 1010,5 hPa 0,0 l/m 2 min 0 min 291 W/m 18,8 km/h (3 Bft)
23.06.2015 08:58 11,7 C 10,6 C 99 % 12 lf 1010,5 hPa 0,0 l/m 0 min 0 min 207 W/m 14,6 km/h (3 Bft)
23.06.2015 09:00 11,7 C 10,6 C 99 % 11 lf 1010,5 hPa 0,0 l/m 2 min 0 min 277 W/m 12,6 km/h (3 Bft)
23.06.2015 09:02 11,8 C 10,6 C 99 % 12 lf 1010,5 hPa 0,0 l/m 0 min 0 min 219 W/m 12,6 km/h (3 Bft)
23.06.2015 09:04 11,8 C 10,6 C 99 % 11 lf 1010,5 hPa 0,0 l/m 2 min 0 min 298 W/m 12,6 km/h (3 Bft)
23.06.2015 09:06 11,9 C 11,1 C 99 % 10 lf 1010,5 hPa 0,0 l/m 2 min 0 min 608 W/m 14,6 km/h (3 Bft)
23.06.2015 09:08 11,9 C 11,1 C 99 % 7 lf 1010,5 hPa 0,0 l/m 2 min 0 min 675 W/m 20,9 km/h (4 Bft)
23.06.2015 09:10 12,1 C 11,1 C 99 % 4 lf 1010,6 hPa 0,0 l/m 2 min 0 min 525 W/m 14,6 km/h (3 Bft)
23.06.2015 09:12 12,2 C 11,1 C 99 % 4 lf 1010,6 hPa 0,0 l/m 0 min 0 min 253 W/m 12,6 km/h (3 Bft)
23.06.2015 09:14 12,2 C 11,1 C 99 % 3 lf 1010,6 hPa 0,0 l/m 0 min 0 min 244 W/m 16,7 km/h (3 Bft)
23.06.2015 09:16 12,2 C 11,1 C 99 % 3 lf 1010,6 hPa 0,0 l/m 2 min 0 min 275 W/m 10,5 km/h (2 Bft)
23.06.2015 09:18 12,2 C 11,1 C 99 % 2 lf 1010,6 hPa 0,0 l/m 0 min 0 min 266 W/m 14,6 km/h (3 Bft)
23.06.2015 09:20 12,3 C 11,7 C 99 % 2 lf 1010,6 hPa 0,0 l/m 0 min 0 min 223 W/m 16,7 km/h (3 Bft)
23.06.2015 09:22 12,4 C 11,7 C 99 % 2 lf 1010,6 hPa 0,0 l/m 2 min 0 min 696 W/m 16,7 km/h (3 Bft)
23.06.2015 09:24 12,6 C 12,2 C 99 % 1 lf 1010,6 hPa 0,0 l/m 2 min 0 min 797 W/m 16,7 km/h (3 Bft)
23.06.2015 09:26 12,7 C 11,7 C 98 % 0 lf 1010,6 hPa 0,0 l/m 2 min 0 min 328 W/m 16,7 km/h (3 Bft)
23.06.2015 09:28 12,7 C 11,7 C 98 % 0 lf 1010,6 hPa 0,0 l/m 2 min 0 min 295 W/m 10,5 km/h (2 Bft)
23.06.2015 09:30 12,8 C 11,7 C 99 % 0 lf 1010,6 hPa 0,0 l/m 0 min 0 min 231 W/m 20,9 km/h (4 Bft)
23.06.2015 09:32 12,8 C 11,7 C 99 % 0 lf 1010,7 hPa 0,0 l/m 0 min 0 min 152 W/m 14,6 km/h (3 Bft)
23.06.2015 09:34 12,8 C 11,1 C 98 % 3 lf 1010,7 hPa 0,0 l/m 0 min 2 min 125 W/m 14,6 km/h (3 Bft)
23.06.2015 09:36 12,7 C 11,1 C 98 % 13 lf 1010,7 hPa 0,0 l/m 0 min 2 min 79 W/m 20,9 km/h (4 Bft)
23.06.2015 09:38 12,7 C 10,6 C 98 % 15 lf 1010,7 hPa 0,0 l/m 0 min 2 min 55 W/m 18,8 km/h (3 Bft)
23.06.2015 09:40 12,6 C 10,6 C 98 % 15 lf 1010,8 hPa 0,0 l/m 0 min 2 min 60 W/m 12,6 km/h (3 Bft)
23.06.2015 09:42 12,6 C 10,6 C 98 % 15 lf 1010,7 hPa 0,0 l/m 0 min 2 min 65 W/m 12,6 km/h (3 Bft)
23.06.2015 09:44 12,6 C 10,6 C 97 % 15 lf 1010,8 hPa 0,0 l/m 0 min 2 min 71 W/m 8,4 km/h (2 Bft)
23.06.2015 09:46 12,5 C 10,6 C 97 % 15 lf 1010,8 hPa 0,0 l/m 0 min 2 min 83 W/m 16,7 km/h (3 Bft)
23.06.2015 09:48 12,5 C 10,6 C 97 % 15 lf 1010,9 hPa 0,0 l/m 0 min 0 min 106 W/m 10,5 km/h (2 Bft)
23.06.2015 09:50 12,5 C 10,6 C 97 % 15 lf 1010,9 hPa 0,0 l/m 0 min 0 min 133 W/m 12,6 km/h (3 Bft)
23.06.2015 09:52 12,4 C 11,1 C 96 % 15 lf 1010,9 hPa 0,0 l/m 0 min 0 min 145 W/m 14,6 km/h (3 Bft)
23.06.2015 09:54 12,4 C 11,1 C 96 % 15 lf 1010,9 hPa 0,0 l/m 0 min 0 min 165 W/m 10,5 km/h (2 Bft)
23.06.2015 09:56 12,4 C 11,1 C 96 % 15 lf 1010,9 hPa 0,0 l/m 0 min 0 min 186 W/m 12,6 km/h (3 Bft)
23.06.2015 09:58 12,4 C 11,1 C 96 % 15 lf 1010,9 hPa 0,0 l/m 0 min 0 min 217 W/m 10,5 km/h (2 Bft)
23.06.2015 10:00 12,4 C 11,1 C 96 % 15 lf 1011,0 hPa 0,0 l/m 0 min 0 min 265 W/m 12,6 km/h (3 Bft)
23.06.2015 10:02 12,4 C 12,2 C 96 % 15 lf 1011,0 hPa 0,0 l/m 2 min 0 min 457 W/m 12,6 km/h (3 Bft)
23.06.2015 10:04 12,6 C 13,3 C 96 % 13 lf 1010,9 hPa 0,0 l/m 2 min 0 min 915 W/m 6,3 km/h (2 Bft)
23.06.2015 10:06 12,8 C 12,8 C 96 % 10 lf 1010,9 hPa 0,0 l/m 2 min 0 min 833 W/m 6,3 km/h (2 Bft)
23.06.2015 10:08 12,9 C 12,8 C 96 % 4 lf 1011,0 hPa 0,0 l/m 0 min 0 min 282 W/m 10,5 km/h (2 Bft)
23.06.2015 10:10 13,0 C 12,8 C 96 % 1 lf 1010,9 hPa 0,0 l/m 2 min 0 min 323 W/m 14,6 km/h (3 Bft)
23.06.2015 10:12 13,1 C 13,3 C 96 % 0 lf 1011,0 hPa 0,0 l/m 2 min 0 min 937 W/m 16,7 km/h (3 Bft)
23.06.2015 10:14 13,3 C 12,8 C 96 % 0 lf 1010,9 hPa 0,0 l/m 2 min 0 min 439 W/m 12,6 km/h (3 Bft)
23.06.2015 10:16 13,3 C 12,2 C 96 % 0 lf 1010,9 hPa 0,0 l/m 0 min 0 min 229 W/m 14,6 km/h (3 Bft)
23.06.2015 10:18 13,4 C 12,8 C 96 % 0 lf 1011,0 hPa 0,0 l/m 0 min 0 min 151 W/m 16,7 km/h (3 Bft)
23.06.2015 10:20 13,4 C 14,4 C 96 % 0 lf 1010,9 hPa 0,0 l/m 2 min 0 min 334 W/m 12,6 km/h (3 Bft)
23.06.2015 10:22 13,5 C 15,0 C 96 % 0 lf 1010,9 hPa 0,0 l/m 2 min 0 min 774 W/m 16,7 km/h (3 Bft)
23.06.2015 10:24 13,6 C 15,6 C 96 % 0 lf 1011,0 hPa 0,0 l/m 2 min 0 min 795 W/m 12,6 km/h (3 Bft)
23.06.2015 10:26 13,8 C 15,0 C 95 % 0 lf 1011,0 hPa 0,0 l/m 2 min 0 min 839 W/m 12,6 km/h (3 Bft)
23.06.2015 10:28 13,9 C 15,0 C 96 % 0 lf 1011,0 hPa 0,0 l/m 2 min 0 min 916 W/m 16,7 km/h (3 Bft)
23.06.2015 10:30 14,2 C 15,0 C 95 % 0 lf 1011,0 hPa 0,0 l/m 2 min 0 min 969 W/m 12,6 km/h (3 Bft)
23.06.2015 10:32 14,2 C 14,4 C 95 % 0 lf 1011,0 hPa 0,0 l/m 2 min 0 min 969 W/m 18,8 km/h (3 Bft)
23.06.2015 10:34 14,3 C 13,9 C 93 % 0 lf 1011,0 hPa 0,0 l/m 2 min 0 min 969 W/m 16,7 km/h (3 Bft)
23.06.2015 10:36 14,4 C 13,3 C 93 % 0 lf 1011,1 hPa 0,0 l/m 2 min 0 min 465 W/m 16,7 km/h (3 Bft)
23.06.2015 10:38 14,4 C 12,8 C 92 % 0 lf 1011,2 hPa 0,0 l/m 0 min 0 min 159 W/m 25,1 km/h (4 Bft)
23.06.2015 10:40 14,4 C 12,2 C 91 % 0 lf 1011,2 hPa 0,0 l/m 0 min 0 min 216 W/m 20,9 km/h (4 Bft)
23.06.2015 10:42 14,5 C 13,3 C 90 % 0 lf 1011,2 hPa 0,0 l/m 0 min 0 min 243 W/m 18,8 km/h (3 Bft)
23.06.2015 10:44 14,6 C 13,3 C 90 % 0 lf 1011,2 hPa 0,0 l/m 0 min 0 min 243 W/m 14,6 km/h (3 Bft)
23.06.2015 10:46 14,6 C 12,8 C 89 % 0 lf 1011,2 hPa 0,0 l/m 0 min 0 min 239 W/m 18,8 km/h (3 Bft)
23.06.2015 10:48 14,6 C 12,8 C 88 % 0 lf 1011,2 hPa 0,0 l/m 0 min 0 min 249 W/m 20,9 km/h (4 Bft)
23.06.2015 10:50 14,6 C 12,2 C 87 % 0 lf 1011,2 hPa 0,0 l/m 0 min 0 min 295 W/m 23,0 km/h (4 Bft)
23.06.2015 10:52 14,6 C 12,2 C 87 % 0 lf 1011,2 hPa 0,0 l/m 0 min 0 min 285 W/m 20,9 km/h (4 Bft)
23.06.2015 10:54 14,6 C 12,2 C 86 % 0 lf 1011,2 hPa 0,0 l/m 0 min 0 min 314 W/m 20,9 km/h (4 Bft)
23.06.2015 10:56 14,6 C 12,8 C 85 % 0 lf 1011,2 hPa 0,0 l/m 0 min 0 min 325 W/m 25,1 km/h (4 Bft)
23.06.2015 10:58 14,6 C 13,3 C 85 % 0 lf 1011,3 hPa 0,0 l/m 2 min 0 min 373 W/m 23,0 km/h (4 Bft)
23.06.2015 11:00 14,7 C 14,4 C 85 % 0 lf 1011,3 hPa 0,0 l/m 2 min 0 min 888 W/m 23,0 km/h (4 Bft)
23.06.2015 11:02 14,9 C 15,6 C 84 % 0 lf 1011,3 hPa 0,0 l/m 2 min 0 min 902 W/m 18,8 km/h (3 Bft)
23.06.2015 11:04 15,1 C 16,7 C 84 % 0 lf 1011,3 hPa 0,0 l/m 2 min 0 min 939 W/m 10,5 km/h (2 Bft)
23.06.2015 11:06 15,3 C 17,8 C 85 % 0 lf 1011,3 hPa 0,0 l/m 2 min 0 min 979 W/m 14,6 km/h (3 Bft)
23.06.2015 11:08 15,4 C 16,7 C 83 % 0 lf 1011,3 hPa 0,0 l/m 2 min 0 min 940 W/m 10,5 km/h (2 Bft)
23.06.2015 11:10 15,6 C 16,1 C 83 % 0 lf 1011,3 hPa 0,0 l/m 2 min 0 min 660 W/m 12,6 km/h (3 Bft)
23.06.2015 11:12 15,7 C 14,4 C 83 % 1 lf 1011,3 hPa 0,0 l/m 0 min 2 min 244 W/m 18,8 km/h (3 Bft)
23.06.2015 11:14 15,8 C 13,3 C 81 % 0 lf 1011,3 hPa 0,0 l/m 0 min 0 min 138 W/m 23,0 km/h (4 Bft)
23.06.2015 11:16 15,7 C 12,8 C 81 % 0 lf 1011,4 hPa 0,0 l/m 0 min 0 min 149 W/m 18,8 km/h (3 Bft)
23.06.2015 11:18 15,6 C 12,2 C 80 % 0 lf 1011,4 hPa 0,0 l/m 0 min 0 min 188 W/m 18,8 km/h (3 Bft)
23.06.2015 11:20 15,4 C 12,2 C 80 % 0 lf 1011,4 hPa 0,0 l/m 0 min 0 min 225 W/m 12,6 km/h (3 Bft)
23.06.2015 11:22 15,3 C 12,2 C 80 % 0 lf 1011,4 hPa 0,0 l/m 0 min 0 min 247 W/m 20,9 km/h (4 Bft)
23.06.2015 11:24 15,3 C 12,2 C 81 % 0 lf 1011,4 hPa 0,0 l/m 0 min 0 min 236 W/m 20,9 km/h (4 Bft)
23.06.2015 11:26 15,2 C 12,2 C 81 % 0 lf 1011,5 hPa 0,0 l/m 0 min 0 min 245 W/m 16,7 km/h (3 Bft)
23.06.2015 11:28 15,2 C 12,8 C 81 % 0 lf 1011,5 hPa 0,0 l/m 0 min 0 min 269 W/m 14,6 km/h (3 Bft)
23.06.2015 11:30 15,2 C 12,8 C 81 % 0 lf 1011,5 hPa 0,0 l/m 0 min 0 min 323 W/m 23,0 km/h (4 Bft)
23.06.2015 11:32 15,2 C 12,8 C 82 % 0 lf 1011,6 hPa 0,0 l/m 0 min 0 min 347 W/m 20,9 km/h (4 Bft)
23.06.2015 11:34 15,1 C 12,8 C 82 % 0 lf 1011,5 hPa 0,0 l/m 0 min 0 min 338 W/m 10,5 km/h (2 Bft)
23.06.2015 11:36 15,1 C 13,3 C 81 % 0 lf 1011,5 hPa 0,0 l/m 0 min 0 min 339 W/m 16,7 km/h (3 Bft)
23.06.2015 11:38 15,2 C 13,9 C 81 % 0 lf 1011,5 hPa 0,0 l/m 2 min 0 min 394 W/m 10,5 km/h (2 Bft)
23.06.2015 11:40 15,2 C 13,9 C 82 % 0 lf 1011,5 hPa 0,0 l/m 0 min 0 min 359 W/m 14,6 km/h (3 Bft)
23.06.2015 11:42 15,2 C 12,8 C 81 % 0 lf 1011,6 hPa 0,0 l/m 0 min 0 min 148 W/m 23,0 km/h (4 Bft)
23.06.2015 11:44 15,2 C 12,8 C 81 % 1 lf 1011,6 hPa 0,0 l/m 0 min 2 min 164 W/m 20,9 km/h (4 Bft)
23.06.2015 11:46 15,1 C 12,2 C 80 % 0 lf 1011,6 hPa 0,0 l/m 0 min 0 min 185 W/m 20,9 km/h (4 Bft)
23.06.2015 11:48 15,1 C 12,2 C 80 % 0 lf 1011,6 hPa 0,0 l/m 0 min 0 min 226 W/m 25,1 km/h (4 Bft)
23.06.2015 11:50 15,0 C 12,2 C 79 % 0 lf 1011,8 hPa 0,0 l/m 0 min 0 min 278 W/m 27,2 km/h (4 Bft)
23.06.2015 11:52 14,9 C 12,8 C 79 % 0 lf 1011,6 hPa 0,0 l/m 2 min 0 min 559 W/m 18,8 km/h (3 Bft)
23.06.2015 11:54 14,9 C 13,9 C 80 % 0 lf 1011,8 hPa 0,0 l/m 2 min 0 min 626 W/m 20,9 km/h (4 Bft)
23.06.2015 11:56 15,1 C 15,6 C 82 % 0 lf 1011,8 hPa 0,0 l/m 2 min 0 min 529 W/m 25,1 km/h (4 Bft)
23.06.2015 11:58 15,2 C 16,7 C 82 % 0 lf 1011,7 hPa 0,0 l/m 2 min 0 min 1008 W/m 18,8 km/h (3 Bft)
23.06.2015 12:00 15,4 C 18,3 C 82 % 0 lf 1011,7 hPa 0,0 l/m 2 min 0 min 1012 W/m 14,6 km/h (3 Bft)
23.06.2015 12:03 15,7 C 18,3 C 82 % 0 lf 1011,8 hPa 0,0 l/m 2 min 0 min 1109 W/m 14,6 km/h (3 Bft)
23.06.2015 12:05 15,9 C 18,3 C 81 % 0 lf 1011,7 hPa 0,0 l/m 0 min 0 min 399 W/m 31,4 km/h (5 Bft)
23.06.2015 12:06 16,0 C 18,3 C 80 % 0 lf 1011,8 hPa 0,0 l/m 0 min 0 min 399 W/m 31,4 km/h (5 Bft)
23.06.2015 12:08 16,2 C 18,9 C 80 % 0 lf 1011,7 hPa 0,0 l/m 2 min 0 min 710 W/m 31,4 km/h (5 Bft)
23.06.2015 12:10 16,3 C 18,3 C 79 % 0 lf 1011,6 hPa 0,0 l/m 2 min 0 min 444 W/m 33,5 km/h (5 Bft)
23.06.2015 12:12 16,4 C 18,3 C 78 % 0 lf 1011,6 hPa 0,0 l/m 2 min 0 min 469 W/m 18,8 km/h (3 Bft)
23.06.2015 12:14 16,6 C 17,2 C 77 % 0 lf 1011,7 hPa 0,0 l/m 0 min 0 min 377 W/m 20,9 km/h (4 Bft)
23.06.2015 12:16 16,7 C 16,1 C 77 % 0 lf 1011,8 hPa 0,0 l/m 0 min 0 min 235 W/m 16,7 km/h (3 Bft)
23.06.2015 12:18 16,7 C 15,6 C 76 % 0 lf 1011,7 hPa 0,0 l/m 0 min 0 min 196 W/m 23,0 km/h (4 Bft)
23.06.2015 12:20 16,6 C 15,0 C 75 % 0 lf 1011,8 hPa 0,0 l/m 0 min 0 min 228 W/m 27,2 km/h (4 Bft)
23.06.2015 12:22 16,5 C 15,0 C 75 % 0 lf 1011,8 hPa 0,0 l/m 0 min 0 min 252 W/m 20,9 km/h (4 Bft)
23.06.2015 12:24 16,4 C 14,4 C 74 % 0 lf 1011,9 hPa 0,0 l/m 0 min 0 min 240 W/m 23,0 km/h (4 Bft)
23.06.2015 12:26 16,3 C 14,4 C 73 % 0 lf 1011,9 hPa 0,0 l/m 0 min 0 min 219 W/m 27,2 km/h (4 Bft)
23.06.2015 12:28 16,2 C 14,4 C 73 % 0 lf 1011,9 hPa 0,0 l/m 0 min 0 min 200 W/m 23,0 km/h (4 Bft)
23.06.2015 12:30 16,1 C 13,9 C 72 % 0 lf 1011,9 hPa 0,0 l/m 0 min 0 min 196 W/m 25,1 km/h (4 Bft)
23.06.2015 12:32 16,0 C 13,9 C 72 % 0 lf 1011,9 hPa 0,0 l/m 0 min 0 min 192 W/m 25,1 km/h (4 Bft)
23.06.2015 12:34 15,9 C 13,9 C 73 % 0 lf 1011,9 hPa 0,0 l/m 0 min 0 min 179 W/m 18,8 km/h (3 Bft)
23.06.2015 12:36 15,9 C 13,9 C 74 % 0 lf 1012,0 hPa 0,0 l/m 0 min 0 min 163 W/m 18,8 km/h (3 Bft)
23.06.2015 12:38 15,8 C 13,9 C 74 % 0 lf 1012,0 hPa 0,0 l/m 0 min 0 min 112 W/m 14,6 km/h (3 Bft)
23.06.2015 12:40 15,8 C 13,9 C 75 % 2 lf 1012,1 hPa 0,0 l/m 0 min 2 min 85 W/m 16,7 km/h (3 Bft)
23.06.2015 12:42 15,7 C 12,8 C 75 % 3 lf 1012,1 hPa 0,0 l/m 0 min 2 min 70 W/m 25,1 km/h (4 Bft)
23.06.2015 12:44 15,6 C 12,8 C 76 % 10 lf 1012,3 hPa 0,0 l/m 0 min 2 min 53 W/m 20,9 km/h (4 Bft)
23.06.2015 12:46 15,5 C 12,2 C 77 % 15 lf 1012,2 hPa 0,0 l/m 0 min 2 min 56 W/m 23,0 km/h (4 Bft)
23.06.2015 12:48 15,4 C 11,7 C 77 % 15 lf 1012,3 hPa 0,0 l/m 0 min 2 min 77 W/m 20,9 km/h (4 Bft)
23.06.2015 12:50 15,3 C 11,7 C 78 % 15 lf 1012,4 hPa 0,0 l/m 0 min 2 min 109 W/m 20,9 km/h (4 Bft)
23.06.2015 12:52 15,2 C 11,7 C 79 % 15 lf 1012,4 hPa 0,2 l/m 0 min 2 min 147 W/m 33,5 km/h (5 Bft)
23.06.2015 12:54 15,0 C 11,7 C 79 % 15 lf 1012,5 hPa 0,0 l/m 0 min 2 min 172 W/m 25,1 km/h (4 Bft)
23.06.2015 12:56 14,9 C 11,7 C 79 % 15 lf 1012,5 hPa 0,0 l/m 0 min 2 min 189 W/m 20,9 km/h (4 Bft)
23.06.2015 12:58 14,8 C 11,7 C 81 % 15 lf 1012,6 hPa 0,0 l/m 0 min 2 min 196 W/m 18,8 km/h (3 Bft)
23.06.2015 13:00 14,7 C 11,7 C 81 % 15 lf 1012,7 hPa 0,0 l/m 0 min 2 min 196 W/m 23,0 km/h (4 Bft)
23.06.2015 13:02 14,6 C 11,7 C 81 % 15 lf 1012,6 hPa 0,0 l/m 0 min 2 min 197 W/m 31,4 km/h (5 Bft)
23.06.2015 13:04 14,4 C 11,7 C 82 % 15 lf 1012,6 hPa 0,0 l/m 0 min 2 min 191 W/m 18,8 km/h (3 Bft)
23.06.2015 13:06 14,4 C 11,7 C 83 % 15 lf 1012,7 hPa 0,0 l/m 0 min 2 min 179 W/m 18,8 km/h (3 Bft)
23.06.2015 13:08 14,3 C 11,7 C 83 % 15 lf 1012,8 hPa 0,0 l/m 0 min 2 min 172 W/m 16,7 km/h (3 Bft)
23.06.2015 13:10 14,3 C 11,7 C 84 % 15 lf 1012,8 hPa 0,0 l/m 0 min 2 min 164 W/m 23,0 km/h (4 Bft)
23.06.2015 13:12 14,2 C 11,7 C 84 % 15 lf 1012,8 hPa 0,0 l/m 0 min 2 min 172 W/m 35,6 km/h (5 Bft)
23.06.2015 13:14 14,2 C 11,1 C 84 % 15 lf 1012,8 hPa 0,0 l/m 0 min 2 min 195 W/m 25,1 km/h (4 Bft)
23.06.2015 13:16 14,2 C 11,1 C 84 % 15 lf 1012,9 hPa 0,2 l/m 0 min 2 min 212 W/m 16,7 km/h (3 Bft)
23.06.2015 13:18 14,1 C 11,1 C 84 % 15 lf 1012,8 hPa 0,0 l/m 0 min 2 min 206 W/m 18,8 km/h (3 Bft)
23.06.2015 13:20 14,0 C 11,7 C 85 % 15 lf 1012,9 hPa 0,0 l/m 0 min 2 min 204 W/m 18,8 km/h (3 Bft)
23.06.2015 13:22 13,9 C 11,7 C 86 % 15 lf 1012,9 hPa 0,0 l/m 0 min 2 min 211 W/m 25,1 km/h (4 Bft)
23.06.2015 13:24 13,9 C 11,7 C 86 % 15 lf 1013,0 hPa 0,0 l/m 0 min 2 min 208 W/m 18,8 km/h (3 Bft)
23.06.2015 13:26 13,9 C 11,7 C 86 % 15 lf 1012,9 hPa 0,0 l/m 0 min 2 min 217 W/m 20,9 km/h (4 Bft)
23.06.2015 13:28 13,9 C 11,7 C 86 % 15 lf 1013,0 hPa 0,0 l/m 0 min 2 min 223 W/m 18,8 km/h (3 Bft)
23.06.2015 13:30 13,8 C 11,7 C 87 % 15 lf 1012,9 hPa 0,0 l/m 0 min 2 min 221 W/m 20,9 km/h (4 Bft)
23.06.2015 13:32 13,8 C 11,7 C 87 % 15 lf 1013,0 hPa 0,0 l/m 0 min 2 min 206 W/m 23,0 km/h (4 Bft)
23.06.2015 13:34 13,8 C 11,7 C 87 % 15 lf 1013,0 hPa 0,0 l/m 0 min 2 min 196 W/m 14,6 km/h (3 Bft)
23.06.2015 13:36 13,7 C 11,7 C 87 % 15 lf 1013,0 hPa 0,2 l/m 0 min 2 min 182 W/m 18,8 km/h (3 Bft)
23.06.2015 13:38 13,7 C 11,7 C 87 % 15 lf 1013,0 hPa 0,0 l/m 0 min 2 min 168 W/m 14,6 km/h (3 Bft)
23.06.2015 13:40 13,7 C 11,7 C 87 % 15 lf 1013,0 hPa 0,0 l/m 0 min 2 min 172 W/m 20,9 km/h (4 Bft)
23.06.2015 13:42 13,6 C 11,7 C 88 % 15 lf 1013,1 hPa 0,0 l/m 0 min 2 min 180 W/m 16,7 km/h (3 Bft)
23.06.2015 13:44 13,6 C 11,7 C 88 % 15 lf 1013,1 hPa 0,0 l/m 0 min 2 min 196 W/m 14,6 km/h (3 Bft)
23.06.2015 13:46 13,6 C 11,7 C 88 % 15 lf 1013,1 hPa 0,0 l/m 0 min 2 min 199 W/m 16,7 km/h (3 Bft)
23.06.2015 13:48 13,6 C 11,7 C 88 % 15 lf 1013,1 hPa 0,0 l/m 0 min 2 min 185 W/m 18,8 km/h (3 Bft)
23.06.2015 13:50 13,6 C 11,7 C 89 % 15 lf 1013,1 hPa 0,0 l/m 0 min 2 min 158 W/m 12,6 km/h (3 Bft)
23.06.2015 13:52 13,6 C 11,7 C 89 % 15 lf 1013,1 hPa 0,2 l/m 0 min 2 min 156 W/m 10,5 km/h (2 Bft)
23.06.2015 13:54 13,6 C 11,7 C 89 % 15 lf 1013,1 hPa 0,0 l/m 0 min 2 min 163 W/m 10,5 km/h (2 Bft)
23.06.2015 13:56 13,6 C 11,7 C 89 % 15 lf 1013,1 hPa 0,0 l/m 0 min 2 min 165 W/m 16,7 km/h (3 Bft)
23.06.2015 13:58 13,6 C 11,7 C 89 % 15 lf 1013,1 hPa 0,0 l/m 0 min 2 min 164 W/m 8,4 km/h (2 Bft)
23.06.2015 14:00 13,6 C 11,7 C 89 % 15 lf 1013,2 hPa 0,0 l/m 0 min 2 min 184 W/m 14,6 km/h (3 Bft)
23.06.2015 14:02 13,6 C 11,7 C 90 % 15 lf 1013,1 hPa 0,0 l/m 0 min 2 min 192 W/m 12,6 km/h (3 Bft)
23.06.2015 14:04 13,6 C 11,7 C 90 % 15 lf 1013,2 hPa 0,0 l/m 0 min 2 min 181 W/m 18,8 km/h (3 Bft)
23.06.2015 14:06 13,6 C 11,7 C 90 % 15 lf 1013,2 hPa 0,0 l/m 0 min 2 min 170 W/m 16,7 km/h (3 Bft)
23.06.2015 14:08 13,6 C 11,7 C 90 % 15 lf 1013,1 hPa 0,0 l/m 0 min 2 min 153 W/m 14,6 km/h (3 Bft)
23.06.2015 14:10 13,6 C 11,7 C 90 % 15 lf 1013,2 hPa 0,0 l/m 0 min 2 min 159 W/m 8,4 km/h (2 Bft)
23.06.2015 14:12 13,6 C 11,7 C 90 % 15 lf 1013,2 hPa 0,0 l/m 0 min 2 min 152 W/m 12,6 km/h (3 Bft)
23.06.2015 14:14 13,6 C 11,7 C 91 % 15 lf 1013,3 hPa 0,0 l/m 0 min 2 min 130 W/m 12,6 km/h (3 Bft)
23.06.2015 14:16 13,6 C 11,7 C 91 % 15 lf 1013,3 hPa 0,0 l/m 0 min 2 min 140 W/m 12,6 km/h (3 Bft)
23.06.2015 14:18 13,6 C 11,7 C 91 % 15 lf 1013,3 hPa 0,0 l/m 0 min 2 min 161 W/m 6,3 km/h (2 Bft)
23.06.2015 14:20 13,6 C 11,7 C 91 % 15 lf 1013,3 hPa 0,0 l/m 0 min 2 min 163 W/m 18,8 km/h (3 Bft)
23.06.2015 14:22 13,6 C 11,7 C 91 % 15 lf 1013,3 hPa 0,2 l/m 0 min 2 min 193 W/m 14,6 km/h (3 Bft)
23.06.2015 14:24 13,6 C 11,7 C 91 % 15 lf 1013,3 hPa 0,0 l/m 0 min 2 min 193 W/m 20,9 km/h (4 Bft)
23.06.2015 14:26 13,5 C 11,7 C 91 % 15 lf 1013,3 hPa 0,0 l/m 0 min 2 min 162 W/m 10,5 km/h (2 Bft)
23.06.2015 14:28 13,5 C 11,7 C 91 % 15 lf 1013,3 hPa 0,0 l/m 0 min 2 min 143 W/m 12,6 km/h (3 Bft)
23.06.2015 14:30 13,5 C 11,7 C 91 % 15 lf 1013,3 hPa 0,0 l/m 0 min 2 min 139 W/m 10,5 km/h (2 Bft)
23.06.2015 14:32 13,5 C 11,7 C 91 % 15 lf 1013,4 hPa 0,0 l/m 0 min 2 min 124 W/m 12,6 km/h (3 Bft)
23.06.2015 14:34 13,5 C 12,2 C 91 % 15 lf 1013,3 hPa 0,0 l/m 0 min 2 min 162 W/m 12,6 km/h (3 Bft)
23.06.2015 14:36 13,6 C 12,2 C 91 % 15 lf 1013,4 hPa 0,0 l/m 0 min 2 min 183 W/m 8,4 km/h (2 Bft)
23.06.2015 14:38 13,6 C 12,2 C 92 % 15 lf 1013,4 hPa 0,0 l/m 0 min 2 min 190 W/m 14,6 km/h (3 Bft)
23.06.2015 14:40 13,6 C 12,2 C 92 % 15 lf 1013,4 hPa 0,0 l/m 0 min 2 min 215 W/m 16,7 km/h (3 Bft)
23.06.2015 14:42 13,6 C 12,2 C 92 % 15 lf 1013,4 hPa 0,0 l/m 0 min 2 min 189 W/m 12,6 km/h (3 Bft)
23.06.2015 14:44 13,6 C 11,7 C 92 % 15 lf 1013,4 hPa 0,0 l/m 0 min 2 min 162 W/m 12,6 km/h (3 Bft)
23.06.2015 14:46 13,6 C 11,7 C 92 % 15 lf 1013,4 hPa 0,0 l/m 0 min 0 min 149 W/m 14,6 km/h (3 Bft)
23.06.2015 14:48 13,6 C 11,7 C 92 % 15 lf 1013,5 hPa 0,0 l/m 0 min 2 min 148 W/m 10,5 km/h (2 Bft)
23.06.2015 14:50 13,6 C 11,7 C 92 % 15 lf 1013,5 hPa 0,0 l/m 0 min 0 min 134 W/m 14,6 km/h (3 Bft)
23.06.2015 14:52 13,6 C 11,7 C 92 % 15 lf 1013,6 hPa 0,0 l/m 0 min 0 min 130 W/m 16,7 km/h (3 Bft)
23.06.2015 14:54 13,6 C 11,7 C 92 % 15 lf 1013,5 hPa 0,0 l/m 0 min 0 min 129 W/m 12,6 km/h (3 Bft)
23.06.2015 14:56 13,6 C 11,7 C 92 % 15 lf 1013,5 hPa 0,0 l/m 0 min 2 min 120 W/m 10,5 km/h (2 Bft)
23.06.2015 14:58 13,6 C 11,7 C 92 % 15 lf 1013,6 hPa 0,0 l/m 0 min 0 min 108 W/m 14,6 km/h (3 Bft)
23.06.2015 15:00 13,5 C 11,7 C 92 % 15 lf 1013,6 hPa 0,0 l/m 0 min 0 min 94 W/m 12,6 km/h (3 Bft)
23.06.2015 15:02 13,5 C 11,7 C 92 % 14 lf 1013,6 hPa 0,0 l/m 0 min 0 min 83 W/m 10,5 km/h (2 Bft)
23.06.2015 15:04 13,5 C 11,7 C 92 % 15 lf 1013,6 hPa 0,0 l/m 0 min 0 min 65 W/m 14,6 km/h (3 Bft)
23.06.2015 15:06 13,5 C 11,7 C 92 % 15 lf 1013,6 hPa 0,0 l/m 0 min 0 min 64 W/m 14,6 km/h (3 Bft)
23.06.2015 15:08 13,4 C 11,7 C 92 % 15 lf 1013,6 hPa 0,0 l/m 0 min 0 min 53 W/m 12,6 km/h (3 Bft)
23.06.2015 15:10 13,4 C 11,7 C 92 % 15 lf 1013,7 hPa 0,0 l/m 0 min 2 min 59 W/m 16,7 km/h (3 Bft)
23.06.2015 15:12 13,4 C 11,7 C 92 % 15 lf 1013,8 hPa 0,0 l/m 0 min 2 min 82 W/m 14,6 km/h (3 Bft)
23.06.2015 15:14 13,4 C 11,7 C 92 % 15 lf 1013,8 hPa 0,0 l/m 0 min 2 min 109 W/m 10,5 km/h (2 Bft)
23.06.2015 15:16 13,4 C 11,7 C 92 % 15 lf 1013,8 hPa 0,0 l/m 0 min 2 min 93 W/m 14,6 km/h (3 Bft)
23.06.2015 15:18 13,4 C 11,7 C 92 % 15 lf 1013,8 hPa 0,2 l/m 0 min 2 min 90 W/m 20,9 km/h (4 Bft)
23.06.2015 15:20 13,4 C 11,7 C 92 % 15 lf 1013,9 hPa 0,0 l/m 0 min 2 min 90 W/m 20,9 km/h (4 Bft)
23.06.2015 15:22 13,4 C 11,7 C 92 % 15 lf 1013,9 hPa 0,0 l/m 0 min 2 min 72 W/m 18,8 km/h (3 Bft)
23.06.2015 15:24 13,4 C 11,7 C 92 % 15 lf 1013,9 hPa 0,0 l/m 0 min 2 min 62 W/m 16,7 km/h (3 Bft)
23.06.2015 15:26 13,4 C 11,7 C 92 % 15 lf 1013,9 hPa 0,0 l/m 0 min 2 min 60 W/m 14,6 km/h (3 Bft)
23.06.2015 15:28 13,3 C 11,7 C 92 % 15 lf 1013,9 hPa 0,0 l/m 0 min 2 min 84 W/m 10,5 km/h (2 Bft)
23.06.2015 15:30 13,3 C 11,7 C 92 % 15 lf 1013,9 hPa 0,0 l/m 0 min 0 min 103 W/m 10,5 km/h (2 Bft)
23.06.2015 15:32 13,3 C 11,7 C 92 % 15 lf 1013,9 hPa 0,0 l/m 0 min 0 min 109 W/m 10,5 km/h (2 Bft)
23.06.2015 15:34 13,4 C 11,7 C 92 % 15 lf 1013,9 hPa 0,0 l/m 0 min 0 min 146 W/m 12,6 km/h (3 Bft)
23.06.2015 15:36 13,4 C 12,2 C 92 % 15 lf 1013,9 hPa 0,0 l/m 0 min 0 min 154 W/m 14,6 km/h (3 Bft)
23.06.2015 15:38 13,4 C 12,2 C 93 % 15 lf 1013,9 hPa 0,0 l/m 0 min 0 min 153 W/m 18,8 km/h (3 Bft)
23.06.2015 15:40 13,4 C 12,2 C 93 % 15 lf 1013,9 hPa 0,0 l/m 0 min 0 min 254 W/m 16,7 km/h (3 Bft)
23.06.2015 15:42 13,5 C 12,8 C 93 % 15 lf 1013,9 hPa 0,0 l/m 0 min 0 min 310 W/m 18,8 km/h (3 Bft)
23.06.2015 15:44 13,6 C 12,8 C 93 % 15 lf 1013,9 hPa 0,0 l/m 0 min 0 min 268 W/m 12,6 km/h (3 Bft)
23.06.2015 15:46 13,6 C 12,8 C 93 % 15 lf 1013,9 hPa 0,0 l/m 0 min 0 min 181 W/m 10,5 km/h (2 Bft)
23.06.2015 15:48 13,7 C 12,2 C 94 % 15 lf 1013,9 hPa 0,0 l/m 0 min 0 min 146 W/m 14,6 km/h (3 Bft)
23.06.2015 15:50 13,7 C 12,2 C 93 % 15 lf 1014,0 hPa 0,0 l/m 0 min 0 min 113 W/m 10,5 km/h (2 Bft)
23.06.2015 15:52 13,7 C 12,2 C 93 % 15 lf 1013,9 hPa 0,0 l/m 0 min 0 min 89 W/m 14,6 km/h (3 Bft)
23.06.2015 15:54 13,7 C 12,2 C 93 % 15 lf 1014,0 hPa 0,0 l/m 0 min 0 min 92 W/m 12,6 km/h (3 Bft)
23.06.2015 15:56 13,7 C 12,2 C 93 % 15 lf 1014,0 hPa 0,0 l/m 0 min 0 min 105 W/m 16,7 km/h (3 Bft)
23.06.2015 15:58 13,7 C 12,2 C 93 % 15 lf 1013,9 hPa 0,0 l/m 0 min 0 min 115 W/m 12,6 km/h (3 Bft)
23.06.2015 16:00 13,7 C 12,2 C 93 % 14 lf 1013,9 hPa 0,0 l/m 0 min 0 min 106 W/m 10,5 km/h (2 Bft)
23.06.2015 16:02 13,7 C 12,2 C 93 % 15 lf 1014,0 hPa 0,0 l/m 0 min 2 min 88 W/m 10,5 km/h (2 Bft)
23.06.2015 16:04 13,7 C 12,2 C 93 % 14 lf 1014,0 hPa 0,0 l/m 0 min 0 min 82 W/m 12,6 km/h (3 Bft)
23.06.2015 16:06 13,8 C 12,2 C 93 % 14 lf 1014,0 hPa 0,0 l/m 0 min 0 min 89 W/m 10,5 km/h (2 Bft)
23.06.2015 16:08 13,8 C 12,2 C 93 % 14 lf 1014,0 hPa 0,0 l/m 0 min 0 min 111 W/m 8,4 km/h (2 Bft)
23.06.2015 16:10 13,8 C 12,2 C 93 % 14 lf 1014,0 hPa 0,0 l/m 0 min 0 min 182 W/m 10,5 km/h (2 Bft)
23.06.2015 16:12 13,8 C 12,8 C 93 % 13 lf 1014,1 hPa 0,0 l/m 0 min 0 min 306 W/m 12,6 km/h (3 Bft)
23.06.2015 16:14 13,8 C 13,3 C 94 % 12 lf 1014,1 hPa 0,0 l/m 0 min 0 min 357 W/m 12,6 km/h (3 Bft)
23.06.2015 16:16 13,9 C 13,3 C 94 % 12 lf 1014,0 hPa 0,0 l/m 0 min 0 min 358 W/m 12,6 km/h (3 Bft)
23.06.2015 16:18 14,1 C 13,3 C 94 % 9 lf 1014,1 hPa 0,0 l/m 0 min 0 min 353 W/m 18,8 km/h (3 Bft)
23.06.2015 16:20 14,2 C 13,3 C 94 % 7 lf 1014,1 hPa 0,0 l/m 0 min 0 min 349 W/m 23,0 km/h (4 Bft)
23.06.2015 16:22 14,2 C 13,3 C 94 % 5 lf 1014,0 hPa 0,0 l/m 0 min 0 min 313 W/m 16,7 km/h (3 Bft)
23.06.2015 16:24 14,2 C 13,3 C 94 % 4 lf 1014,0 hPa 0,0 l/m 0 min 0 min 277 W/m 23,0 km/h (4 Bft)
23.06.2015 16:26 14,3 C 13,3 C 94 % 3 lf 1014,1 hPa 0,0 l/m 0 min 0 min 216 W/m 16,7 km/h (3 Bft)
23.06.2015 16:28 14,4 C 13,3 C 94 % 3 lf 1014,1 hPa 0,0 l/m 0 min 0 min 163 W/m 14,6 km/h (3 Bft)
23.06.2015 16:30 14,4 C 12,8 C 94 % 2 lf 1014,1 hPa 0,0 l/m 0 min 0 min 130 W/m 12,6 km/h (3 Bft)
23.06.2015 16:32 14,4 C 12,8 C 94 % 1 lf 1014,1 hPa 0,0 l/m 0 min 0 min 130 W/m 14,6 km/h (3 Bft)
23.06.2015 16:34 14,5 C 12,8 C 93 % 1 lf 1014,1 hPa 0,0 l/m 0 min 0 min 101 W/m 20,9 km/h (4 Bft)
23.06.2015 16:36 14,5 C 12,8 C 93 % 1 lf 1014,1 hPa 0,0 l/m 0 min 0 min 77 W/m 18,8 km/h (3 Bft)
23.06.2015 16:38 14,5 C 12,8 C 93 % 3 lf 1014,2 hPa 0,0 l/m 0 min 2 min 64 W/m 23,0 km/h (4 Bft)
23.06.2015 16:40 14,4 C 12,2 C 92 % 3 lf 1014,2 hPa 0,0 l/m 0 min 2 min 70 W/m 25,1 km/h (4 Bft)
23.06.2015 16:42 14,4 C 12,2 C 92 % 1 lf 1014,2 hPa 0,0 l/m 0 min 0 min 100 W/m 27,2 km/h (4 Bft)
23.06.2015 16:44 14,4 C 12,2 C 91 % 0 lf 1014,1 hPa 0,0 l/m 0 min 0 min 136 W/m 20,9 km/h (4 Bft)
23.06.2015 16:46 14,4 C 12,8 C 91 % 0 lf 1014,2 hPa 0,0 l/m 0 min 0 min 174 W/m 18,8 km/h (3 Bft)
23.06.2015 16:48 14,4 C 12,8 C 91 % 0 lf 1014,2 hPa 0,0 l/m 0 min 0 min 216 W/m 18,8 km/h (3 Bft)
23.06.2015 16:50 14,4 C 12,8 C 91 % 0 lf 1014,3 hPa 0,0 l/m 0 min 0 min 236 W/m 23,0 km/h (4 Bft)
23.06.2015 16:52 14,4 C 12,8 C 90 % 0 lf 1014,3 hPa 0,0 l/m 0 min 0 min 226 W/m 23,0 km/h (4 Bft)
23.06.2015 16:54 14,4 C 12,8 C 90 % 0 lf 1014,2 hPa 0,0 l/m 0 min 0 min 276 W/m 20,9 km/h (4 Bft)
23.06.2015 16:56 14,4 C 13,3 C 89 % 0 lf 1014,2 hPa 0,0 l/m 0 min 0 min 316 W/m 16,7 km/h (3 Bft)
23.06.2015 16:58 14,5 C 13,3 C 89 % 0 lf 1014,2 hPa 0,0 l/m 2 min 0 min 342 W/m 18,8 km/h (3 Bft)
23.06.2015 17:00 14,6 C 13,3 C 89 % 0 lf 1014,2 hPa 0,0 l/m 0 min 0 min 262 W/m 20,9 km/h (4 Bft)
23.06.2015 17:02 14,6 C 12,8 C 88 % 0 lf 1014,2 hPa 0,0 l/m 0 min 0 min 157 W/m 12,6 km/h (3 Bft)
23.06.2015 17:04 14,7 C 12,8 C 88 % 0 lf 1014,3 hPa 0,0 l/m 0 min 0 min 112 W/m 14,6 km/h (3 Bft)
23.06.2015 17:06 14,7 C 12,8 C 88 % 0 lf 1014,3 hPa 0,0 l/m 0 min 0 min 104 W/m 18,8 km/h (3 Bft)
23.06.2015 17:08 14,8 C 12,8 C 88 % 0 lf 1014,4 hPa 0,0 l/m 0 min 0 min 155 W/m 31,4 km/h (5 Bft)
23.06.2015 17:10 14,8 C 12,8 C 87 % 0 lf 1014,4 hPa 0,0 l/m 0 min 0 min 165 W/m 20,9 km/h (4 Bft)
23.06.2015 17:12 14,8 C 12,8 C 86 % 0 lf 1014,4 hPa 0,0 l/m 0 min 0 min 147 W/m 23,0 km/h (4 Bft)
23.06.2015 17:14 14,8 C 12,8 C 86 % 0 lf 1014,4 hPa 0,0 l/m 0 min 0 min 164 W/m 29,3 km/h (5 Bft)
23.06.2015 17:16 14,8 C 12,8 C 85 % 0 lf 1014,5 hPa 0,0 l/m 0 min 0 min 192 W/m 29,3 km/h (5 Bft)
23.06.2015 17:18 14,8 C 12,8 C 84 % 0 lf 1014,5 hPa 0,0 l/m 0 min 0 min 191 W/m 18,8 km/h (3 Bft)
23.06.2015 17:20 14,9 C 12,8 C 84 % 0 lf 1014,5 hPa 0,0 l/m 0 min 0 min 183 W/m 25,1 km/h (4 Bft)
23.06.2015 17:22 14,9 C 12,8 C 84 % 0 lf 1014,6 hPa 0,0 l/m 0 min 0 min 163 W/m 18,8 km/h (3 Bft)
23.06.2015 17:24 14,9 C 12,8 C 84 % 0 lf 1014,6 hPa 0,0 l/m 0 min 0 min 152 W/m 25,1 km/h (4 Bft)
23.06.2015 17:26 14,9 C 12,8 C 84 % 0 lf 1014,6 hPa 0,0 l/m 0 min 0 min 151 W/m 20,9 km/h (4 Bft)
23.06.2015 17:28 14,9 C 12,8 C 83 % 0 lf 1014,7 hPa 0,0 l/m 0 min 0 min 136 W/m 20,9 km/h (4 Bft)
23.06.2015 17:30 14,9 C 12,8 C 83 % 0 lf 1014,6 hPa 0,0 l/m 0 min 0 min 109 W/m 14,6 km/h (3 Bft)
23.06.2015 17:32 14,9 C 12,8 C 83 % 0 lf 1014,7 hPa 0,0 l/m 0 min 0 min 95 W/m 18,8 km/h (3 Bft)
23.06.2015 17:34 14,9 C 12,8 C 83 % 0 lf 1014,7 hPa 0,0 l/m 0 min 0 min 94 W/m 23,0 km/h (4 Bft)
23.06.2015 17:36 14,9 C 12,2 C 83 % 0 lf 1014,7 hPa 0,0 l/m 0 min 0 min 109 W/m 35,6 km/h (5 Bft)
23.06.2015 17:38 14,9 C 12,2 C 82 % 0 lf 1014,8 hPa 0,0 l/m 0 min 0 min 133 W/m 25,1 km/h (4 Bft)
23.06.2015 17:40 14,9 C 12,2 C 82 % 0 lf 1014,7 hPa 0,0 l/m 0 min 0 min 155 W/m 27,2 km/h (4 Bft)
23.06.2015 17:42 14,9 C 12,8 C 81 % 0 lf 1014,8 hPa 0,0 l/m 0 min 0 min 169 W/m 27,2 km/h (4 Bft)
23.06.2015 17:44 14,9 C 12,8 C 81 % 0 lf 1014,8 hPa 0,0 l/m 0 min 0 min 171 W/m 27,2 km/h (4 Bft)
23.06.2015 17:46 14,9 C 12,8 C 81 % 0 lf 1014,9 hPa 0,0 l/m 0 min 0 min 146 W/m 29,3 km/h (5 Bft)
23.06.2015 17:48 14,9 C 12,8 C 81 % 0 lf 1014,9 hPa 0,0 l/m 0 min 0 min 109 W/m 16,7 km/h (3 Bft)
23.06.2015 17:50 14,9 C 12,2 C 81 % 0 lf 1014,9 hPa 0,0 l/m 0 min 0 min 91 W/m 18,8 km/h (3 Bft)
23.06.2015 17:52 14,9 C 12,2 C 81 % 0 lf 1014,9 hPa 0,0 l/m 0 min 0 min 85 W/m 12,6 km/h (3 Bft)
23.06.2015 17:54 14,9 C 12,2 C 81 % 0 lf 1014,9 hPa 0,0 l/m 0 min 0 min 76 W/m 12,6 km/h (3 Bft)
23.06.2015 17:56 14,9 C 12,2 C 81 % 0 lf 1014,9 hPa 0,0 l/m 0 min 0 min 64 W/m 16,7 km/h (3 Bft)
23.06.2015 17:58 14,9 C 12,2 C 82 % 0 lf 1014,9 hPa 0,0 l/m 0 min 0 min 67 W/m 20,9 km/h (4 Bft)
23.06.2015 18:00 14,9 C 12,2 C 82 % 0 lf 1014,9 hPa 0,0 l/m 0 min 0 min 74 W/m 18,8 km/h (3 Bft)
23.06.2015 18:03 14,9 C 12,8 C 82 % 0 lf 1015,0 hPa 0,0 l/m 0 min 0 min 130 W/m 20,9 km/h (4 Bft)
23.06.2015 18:05 14,9 C 12,8 C 82 % 0 lf 1014,9 hPa 0,0 l/m 0 min 0 min 113 W/m 20,9 km/h (4 Bft)
23.06.2015 18:06 14,9 C 12,8 C 82 % 0 lf 1014,9 hPa 0,0 l/m 0 min 0 min 110 W/m 25,1 km/h (4 Bft)
23.06.2015 18:08 14,9 C 12,8 C 82 % 0 lf 1015,0 hPa 0,0 l/m 0 min 0 min 105 W/m 27,2 km/h (4 Bft)
23.06.2015 18:10 14,9 C 12,2 C 81 % 0 lf 1015,0 hPa 0,0 l/m 0 min 0 min 102 W/m 25,1 km/h (4 Bft)
23.06.2015 18:12 14,9 C 12,2 C 81 % 0 lf 1015,0 hPa 0,0 l/m 0 min 0 min 94 W/m 20,9 km/h (4 Bft)
23.06.2015 18:14 14,9 C 12,2 C 80 % 0 lf 1015,0 hPa 0,0 l/m 0 min 0 min 95 W/m 25,1 km/h (4 Bft)
23.06.2015 18:16 14,9 C 12,2 C 80 % 0 lf 1015,0 hPa 0,0 l/m 0 min 0 min 93 W/m 16,7 km/h (3 Bft)
23.06.2015 18:18 14,9 C 12,2 C 80 % 0 lf 1015,1 hPa 0,0 l/m 0 min 0 min 93 W/m 27,2 km/h (4 Bft)
23.06.2015 18:20 14,8 C 12,2 C 79 % 0 lf 1015,1 hPa 0,0 l/m 0 min 0 min 90 W/m 23,0 km/h (4 Bft)
23.06.2015 18:22 14,8 C 12,2 C 79 % 0 lf 1015,1 hPa 0,0 l/m 0 min 0 min 91 W/m 23,0 km/h (4 Bft)
23.06.2015 18:24 14,8 C 12,2 C 79 % 0 lf 1015,1 hPa 0,0 l/m 0 min 0 min 92 W/m 20,9 km/h (4 Bft)
23.06.2015 18:26 14,8 C 12,2 C 79 % 0 lf 1015,1 hPa 0,0 l/m 0 min 0 min 87 W/m 23,0 km/h (4 Bft)
23.06.2015 18:28 14,8 C 12,2 C 79 % 0 lf 1015,2 hPa 0,0 l/m 0 min 0 min 77 W/m 33,5 km/h (5 Bft)
23.06.2015 18:30 14,8 C 12,2 C 79 % 0 lf 1015,1 hPa 0,0 l/m 0 min 0 min 67 W/m 25,1 km/h (4 Bft)
23.06.2015 18:32 14,8 C 12,2 C 79 % 0 lf 1015,3 hPa 0,0 l/m 0 min 0 min 62 W/m 14,6 km/h (3 Bft)
23.06.2015 18:34 14,8 C 12,2 C 79 % 0 lf 1015,3 hPa 0,0 l/m 0 min 0 min 58 W/m 18,8 km/h (3 Bft)
23.06.2015 18:36 14,8 C 12,2 C 79 % 0 lf 1015,3 hPa 0,0 l/m 0 min 0 min 62 W/m 25,1 km/h (4 Bft)
23.06.2015 18:38 14,8 C 12,2 C 79 % 0 lf 1015,5 hPa 0,0 l/m 0 min 0 min 76 W/m 18,8 km/h (3 Bft)
23.06.2015 18:40 14,8 C 12,2 C 79 % 0 lf 1015,5 hPa 0,0 l/m 0 min 0 min 80 W/m 23,0 km/h (4 Bft)
23.06.2015 18:42 14,8 C 12,2 C 79 % 0 lf 1015,5 hPa 0,0 l/m 0 min 0 min 79 W/m 29,3 km/h (5 Bft)
23.06.2015 18:44 14,7 C 12,2 C 79 % 0 lf 1015,4 hPa 0,0 l/m 0 min 0 min 86 W/m 20,9 km/h (4 Bft)
23.06.2015 18:46 14,7 C 12,2 C 79 % 0 lf 1015,4 hPa 0,0 l/m 0 min 0 min 90 W/m 14,6 km/h (3 Bft)
23.06.2015 18:48 14,7 C 12,2 C 79 % 0 lf 1015,5 hPa 0,0 l/m 0 min 0 min 89 W/m 18,8 km/h (3 Bft)
23.06.2015 18:50 14,7 C 12,2 C 79 % 0 lf 1015,5 hPa 0,0 l/m 0 min 0 min 85 W/m 20,9 km/h (4 Bft)
23.06.2015 18:52 14,7 C 12,2 C 79 % 0 lf 1015,6 hPa 0,0 l/m 0 min 0 min 85 W/m 23,0 km/h (4 Bft)
23.06.2015 18:54 14,7 C 12,2 C 79 % 0 lf 1015,6 hPa 0,0 l/m 0 min 0 min 70 W/m 23,0 km/h (4 Bft)
23.06.2015 18:56 14,7 C 12,2 C 80 % 0 lf 1015,6 hPa 0,0 l/m 0 min 0 min 62 W/m 20,9 km/h (4 Bft)
23.06.2015 18:58 14,7 C 12,2 C 80 % 0 lf 1015,7 hPa 0,0 l/m 0 min 0 min 56 W/m 14,6 km/h (3 Bft)
23.06.2015 19:00 14,7 C 12,2 C 80 % 0 lf 1015,7 hPa 0,0 l/m 0 min 0 min 50 W/m 23,0 km/h (4 Bft)
23.06.2015 19:02 14,7 C 12,2 C 80 % 0 lf 1015,8 hPa 0,0 l/m 0 min 0 min 51 W/m 16,7 km/h (3 Bft)
23.06.2015 19:04 14,7 C 12,2 C 80 % 0 lf 1015,7 hPa 0,0 l/m 0 min 0 min 54 W/m 20,9 km/h (4 Bft)
23.06.2015 19:06 14,6 C 12,2 C 80 % 0 lf 1015,8 hPa 0,0 l/m 0 min 0 min 62 W/m 25,1 km/h (4 Bft)
23.06.2015 19:08 14,6 C 12,2 C 79 % 0 lf 1015,8 hPa 0,0 l/m 0 min 0 min 69 W/m 25,1 km/h (4 Bft)
23.06.2015 19:10 14,5 C 12,2 C 79 % 0 lf 1015,8 hPa 0,0 l/m 0 min 0 min 73 W/m 25,1 km/h (4 Bft)
23.06.2015 19:12 14,5 C 12,8 C 79 % 0 lf 1015,8 hPa 0,0 l/m 0 min 0 min 79 W/m 29,3 km/h (5 Bft)
23.06.2015 19:14 14,4 C 12,8 C 79 % 0 lf 1015,8 hPa 0,0 l/m 0 min 0 min 94 W/m 31,4 km/h (5 Bft)
23.06.2015 19:16 14,4 C 12,8 C 79 % 0 lf 1015,9 hPa 0,0 l/m 0 min 0 min 106 W/m 23,0 km/h (4 Bft)
23.06.2015 19:18 14,4 C 12,8 C 79 % 0 lf 1015,9 hPa 0,0 l/m 0 min 0 min 102 W/m 18,8 km/h (3 Bft)
23.06.2015 19:20 14,4 C 12,8 C 79 % 0 lf 1015,9 hPa 0,0 l/m 0 min 0 min 90 W/m 29,3 km/h (5 Bft)
23.06.2015 19:22 14,4 C 12,8 C 80 % 0 lf 1016,0 hPa 0,0 l/m 0 min 0 min 72 W/m 25,1 km/h (4 Bft)
23.06.2015 19:24 14,4 C 12,8 C 79 % 0 lf 1016,0 hPa 0,0 l/m 0 min 0 min 63 W/m 16,7 km/h (3 Bft)
23.06.2015 19:26 14,4 C 12,8 C 80 % 0 lf 1016,0 hPa 0,0 l/m 0 min 0 min 62 W/m 18,8 km/h (3 Bft)
23.06.2015 19:28 14,4 C 12,8 C 80 % 0 lf 1016,0 hPa 0,0 l/m 0 min 0 min 48 W/m 14,6 km/h (3 Bft)
23.06.2015 19:30 14,4 C 12,8 C 80 % 0 lf 1016,1 hPa 0,0 l/m 0 min 0 min 31 W/m 14,6 km/h (3 Bft)
23.06.2015 19:32 14,4 C 12,8 C 80 % 0 lf 1016,1 hPa 0,0 l/m 0 min 0 min 25 W/m 16,7 km/h (3 Bft)
23.06.2015 19:34 14,4 C 12,8 C 80 % 0 lf 1016,1 hPa 0,0 l/m 0 min 0 min 25 W/m 25,1 km/h (4 Bft)
23.06.2015 19:36 14,3 C 12,8 C 81 % 0 lf 1016,1 hPa 0,0 l/m 0 min 0 min 24 W/m 41,8 km/h (6 Bft)
23.06.2015 19:38 14,3 C 12,2 C 81 % 0 lf 1016,1 hPa 0,0 l/m 0 min 0 min 23 W/m 20,9 km/h (4 Bft)
23.06.2015 19:40 14,2 C 12,2 C 81 % 0 lf 1016,1 hPa 0,0 l/m 0 min 0 min 23 W/m 20,9 km/h (4 Bft)
23.06.2015 19:42 14,2 C 12,2 C 81 % 0 lf 1016,2 hPa 0,0 l/m 0 min 0 min 22 W/m 33,5 km/h (5 Bft)
23.06.2015 19:44 14,2 C 12,2 C 81 % 0 lf 1016,1 hPa 0,0 l/m 0 min 0 min 22 W/m 33,5 km/h (5 Bft)
23.06.2015 19:46 14,2 C 12,2 C 81 % 0 lf 1016,2 hPa 0,0 l/m 0 min 0 min 24 W/m 23,0 km/h (4 Bft)
23.06.2015 19:48 14,2 C 12,2 C 81 % 0 lf 1016,3 hPa 0,0 l/m 0 min 0 min 28 W/m 18,8 km/h (3 Bft)
23.06.2015 19:50 14,1 C 12,2 C 81 % 0 lf 1016,2 hPa 0,0 l/m 0 min 0 min 33 W/m 18,8 km/h (3 Bft)
23.06.2015 19:52 14,1 C 12,2 C 81 % 0 lf 1016,3 hPa 0,0 l/m 0 min 0 min 39 W/m 27,2 km/h (4 Bft)
23.06.2015 19:54 14,0 C 12,2 C 81 % 0 lf 1016,3 hPa 0,0 l/m 0 min 0 min 41 W/m 31,4 km/h (5 Bft)
23.06.2015 19:56 13,9 C 12,2 C 81 % 0 lf 1016,3 hPa 0,0 l/m 0 min 0 min 42 W/m 25,1 km/h (4 Bft)
23.06.2015 19:58 13,9 C 12,2 C 81 % 0 lf 1016,4 hPa 0,0 l/m 0 min 0 min 44 W/m 20,9 km/h (4 Bft)
23.06.2015 20:00 13,9 C 12,2 C 81 % 0 lf 1016,4 hPa 0,0 l/m 0 min 0 min 44 W/m 16,7 km/h (3 Bft)
23.06.2015 20:02 13,9 C 12,2 C 81 % 0 lf 1016,4 hPa 0,0 l/m 0 min 0 min 45 W/m 25,1 km/h (4 Bft)
23.06.2015 20:04 13,9 C 12,2 C 82 % 0 lf 1016,4 hPa 0,0 l/m 0 min 0 min 45 W/m 23,0 km/h (4 Bft)
23.06.2015 20:06 13,8 C 12,2 C 82 % 0 lf 1016,4 hPa 0,0 l/m 0 min 0 min 44 W/m 12,6 km/h (3 Bft)
23.06.2015 20:08 13,8 C 12,2 C 82 % 0 lf 1016,5 hPa 0,0 l/m 0 min 0 min 43 W/m 16,7 km/h (3 Bft)
23.06.2015 20:10 13,8 C 12,2 C 82 % 0 lf 1016,5 hPa 0,0 l/m 0 min 0 min 43 W/m 10,5 km/h (2 Bft)
23.06.2015 20:12 13,8 C 12,2 C 82 % 0 lf 1016,5 hPa 0,0 l/m 0 min 0 min 43 W/m 18,8 km/h (3 Bft)
23.06.2015 20:14 13,8 C 12,2 C 82 % 0 lf 1016,5 hPa 0,0 l/m 0 min 0 min 38 W/m 12,6 km/h (3 Bft)
23.06.2015 20:16 13,8 C 12,2 C 82 % 0 lf 1016,6 hPa 0,0 l/m 0 min 0 min 31 W/m 18,8 km/h (3 Bft)
23.06.2015 20:18 13,8 C 12,2 C 82 % 0 lf 1016,6 hPa 0,0 l/m 0 min 0 min 27 W/m 25,1 km/h (4 Bft)
23.06.2015 20:20 13,8 C 12,2 C 82 % 0 lf 1016,6 hPa 0,0 l/m 0 min 0 min 26 W/m 23,0 km/h (4 Bft)
23.06.2015 20:22 13,8 C 12,2 C 83 % 0 lf 1016,6 hPa 0,0 l/m 0 min 0 min 24 W/m 23,0 km/h (4 Bft)
23.06.2015 20:24 13,7 C 12,2 C 82 % 0 lf 1016,7 hPa 0,0 l/m 0 min 0 min 25 W/m 20,9 km/h (4 Bft)
23.06.2015 20:26 13,7 C 12,2 C 83 % 0 lf 1016,7 hPa 0,0 l/m 0 min 0 min 25 W/m 14,6 km/h (3 Bft)
23.06.2015 20:28 13,7 C 12,2 C 83 % 0 lf 1016,8 hPa 0,0 l/m 0 min 0 min 21 W/m 25,1 km/h (4 Bft)
23.06.2015 20:30 13,7 C 12,2 C 83 % 0 lf 1016,7 hPa 0,0 l/m 0 min 0 min 19 W/m 16,7 km/h (3 Bft)
23.06.2015 20:32 13,7 C 12,2 C 83 % 0 lf 1016,8 hPa 0,0 l/m 0 min 0 min 19 W/m 16,7 km/h (3 Bft)
23.06.2015 20:34 13,7 C 12,2 C 83 % 0 lf 1016,8 hPa 0,0 l/m 0 min 0 min 19 W/m 20,9 km/h (4 Bft)
23.06.2015 20:36 13,7 C 12,2 C 83 % 0 lf 1016,9 hPa 0,0 l/m 0 min 0 min 18 W/m 20,9 km/h (4 Bft)
23.06.2015 20:38 13,6 C 12,2 C 83 % 0 lf 1016,9 hPa 0,0 l/m 0 min 0 min 18 W/m 23,0 km/h (4 Bft)
23.06.2015 20:40 13,6 C 12,2 C 83 % 0 lf 1016,9 hPa 0,0 l/m 0 min 0 min 18 W/m 23,0 km/h (4 Bft)
23.06.2015 20:42 13,6 C 12,2 C 83 % 0 lf 1016,9 hPa 0,0 l/m 0 min 0 min 17 W/m 25,1 km/h (4 Bft)
23.06.2015 20:44 13,6 C 12,2 C 83 % 0 lf 1017,0 hPa 0,0 l/m 0 min 0 min 19 W/m 25,1 km/h (4 Bft)
23.06.2015 20:46 13,6 C 12,2 C 83 % 0 lf 1016,9 hPa 0,0 l/m 0 min 0 min 20 W/m 18,8 km/h (3 Bft)
23.06.2015 20:48 13,5 C 11,7 C 83 % 0 lf 1017,0 hPa 0,0 l/m 0 min 0 min 19 W/m 25,1 km/h (4 Bft)
23.06.2015 20:50 13,5 C 11,7 C 84 % 0 lf 1017,0 hPa 0,0 l/m 0 min 0 min 18 W/m 23,0 km/h (4 Bft)
23.06.2015 20:52 13,5 C 11,7 C 84 % 0 lf 1017,0 hPa 0,0 l/m 0 min 0 min 16 W/m 16,7 km/h (3 Bft)
23.06.2015 20:54 13,4 C 11,7 C 84 % 0 lf 1017,0 hPa 0,0 l/m 0 min 0 min 18 W/m 14,6 km/h (3 Bft)
23.06.2015 20:56 13,4 C 11,7 C 84 % 0 lf 1017,0 hPa 0,0 l/m 0 min 0 min 19 W/m 14,6 km/h (3 Bft)
23.06.2015 20:58 13,4 C 11,7 C 84 % 0 lf 1017,0 hPa 0,0 l/m 0 min 0 min 18 W/m 14,6 km/h (3 Bft)
23.06.2015 21:00 13,4 C 11,7 C 85 % 0 lf 1017,1 hPa 0,0 l/m 0 min 0 min 18 W/m 16,7 km/h (3 Bft)
23.06.2015 21:02 13,4 C 11,7 C 85 % 0 lf 1017,1 hPa 0,0 l/m 0 min 0 min 17 W/m 23,0 km/h (4 Bft)
23.06.2015 21:04 13,4 C 11,7 C 85 % 0 lf 1017,1 hPa 0,0 l/m 0 min 0 min 14 W/m 23,0 km/h (4 Bft)
23.06.2015 21:06 13,3 C 11,7 C 85 % 0 lf 1017,1 hPa 0,0 l/m 0 min 0 min 14 W/m 18,8 km/h (3 Bft)
23.06.2015 21:08 13,3 C 11,7 C 85 % 0 lf 1017,2 hPa 0,0 l/m 0 min 0 min 14 W/m 25,1 km/h (4 Bft)
23.06.2015 21:10 13,3 C 11,7 C 85 % 0 lf 1017,2 hPa 0,0 l/m 0 min 0 min 13 W/m 23,0 km/h (4 Bft)
23.06.2015 21:12 13,3 C 11,7 C 85 % 0 lf 1017,2 hPa 0,0 l/m 0 min 0 min 13 W/m 25,1 km/h (4 Bft)
23.06.2015 21:14 13,2 C 11,7 C 85 % 0 lf 1017,3 hPa 0,0 l/m 0 min 0 min 12 W/m 25,1 km/h (4 Bft)
23.06.2015 21:16 13,2 C 11,7 C 85 % 0 lf 1017,3 hPa 0,0 l/m 0 min 0 min 12 W/m 20,9 km/h (4 Bft)
23.06.2015 21:18 13,2 C 11,7 C 85 % 0 lf 1017,3 hPa 0,0 l/m 0 min 0 min 12 W/m 29,3 km/h (5 Bft)
23.06.2015 21:20 13,2 C 11,7 C 85 % 0 lf 1017,3 hPa 0,0 l/m 0 min 0 min 11 W/m 27,2 km/h (4 Bft)
23.06.2015 21:22 13,1 C 11,7 C 85 % 0 lf 1017,4 hPa 0,0 l/m 0 min 0 min 9 W/m 14,6 km/h (3 Bft)
23.06.2015 21:24 13,1 C 11,7 C 85 % 0 lf 1017,4 hPa 0,0 l/m 0 min 0 min 9 W/m 18,8 km/h (3 Bft)
23.06.2015 21:26 13,1 C 11,7 C 86 % 0 lf 1017,5 hPa 0,0 l/m 0 min 0 min 9 W/m 23,0 km/h (4 Bft)
23.06.2015 21:28 13,1 C 11,7 C 86 % 0 lf 1017,4 hPa 0,0 l/m 0 min 0 min 9 W/m 23,0 km/h (4 Bft)
23.06.2015 21:30 13,1 C 11,7 C 86 % 0 lf 1017,5 hPa 0,0 l/m 0 min 0 min 9 W/m 14,6 km/h (3 Bft)
23.06.2015 21:32 13,0 C 11,7 C 86 % 0 lf 1017,5 hPa 0,0 l/m 0 min 0 min 9 W/m 14,6 km/h (3 Bft)
23.06.2015 21:34 13,0 C 11,7 C 86 % 0 lf 1017,5 hPa 0,0 l/m 0 min 0 min 7 W/m 14,6 km/h (3 Bft)
23.06.2015 21:36 13,0 C 11,7 C 86 % 0 lf 1017,5 hPa 0,0 l/m 0 min 0 min 7 W/m 23,0 km/h (4 Bft)
23.06.2015 21:38 12,9 C 11,7 C 86 % 0 lf 1017,6 hPa 0,0 l/m 0 min 0 min 7 W/m 8,4 km/h (2 Bft)
23.06.2015 21:40 12,9 C 11,7 C 87 % 0 lf 1017,6 hPa 0,0 l/m 0 min 0 min 5 W/m 25,1 km/h (4 Bft)
23.06.2015 21:42 12,9 C 11,7 C 87 % 0 lf 1017,6 hPa 0,0 l/m 0 min 0 min 5 W/m 16,7 km/h (3 Bft)
23.06.2015 21:44 12,9 C 11,7 C 87 % 0 lf 1017,6 hPa 0,0 l/m 0 min 0 min 5 W/m 18,8 km/h (3 Bft)
23.06.2015 21:46 12,9 C 11,7 C 87 % 0 lf 1017,6 hPa 0,0 l/m 0 min 0 min 5 W/m 23,0 km/h (4 Bft)
23.06.2015 21:48 12,9 C 11,7 C 87 % 0 lf 1017,7 hPa 0,0 l/m 0 min 0 min 0 W/m 12,6 km/h (3 Bft)
23.06.2015 21:50 12,8 C 11,7 C 87 % 0 lf 1017,7 hPa 0,0 l/m 0 min 0 min 0 W/m 12,6 km/h (3 Bft)
23.06.2015 21:52 12,8 C 11,7 C 87 % 0 lf 1017,7 hPa 0,0 l/m 0 min 0 min 0 W/m 16,7 km/h (3 Bft)
23.06.2015 21:54 12,8 C 11,1 C 87 % 0 lf 1017,8 hPa 0,0 l/m 0 min 0 min 0 W/m 20,9 km/h (4 Bft)
23.06.2015 21:56 12,8 C 11,1 C 87 % 0 lf 1017,8 hPa 0,0 l/m 0 min 0 min 0 W/m 20,9 km/h (4 Bft)
23.06.2015 21:58 12,8 C 11,1 C 88 % 0 lf 1017,7 hPa 0,0 l/m 0 min 0 min 0 W/m 23,0 km/h (4 Bft)
23.06.2015 22:00 12,8 C 11,1 C 88 % 0 lf 1017,8 hPa 0,0 l/m 0 min 0 min 0 W/m 20,9 km/h (4 Bft)
23.06.2015 22:02 12,8 C 11,1 C 88 % 0 lf 1017,8 hPa 0,0 l/m 0 min 0 min 0 W/m 18,8 km/h (3 Bft)
23.06.2015 22:04 12,7 C 11,1 C 88 % 0 lf 1017,9 hPa 0,0 l/m 0 min 0 min 0 W/m 16,7 km/h (3 Bft)
23.06.2015 22:06 12,7 C 11,1 C 88 % 0 lf 1017,9 hPa 0,0 l/m 0 min 0 min 0 W/m 14,6 km/h (3 Bft)
23.06.2015 22:08 12,7 C 11,1 C 88 % 0 lf 1017,9 hPa 0,0 l/m 0 min 0 min 0 W/m 16,7 km/h (3 Bft)
23.06.2015 22:10 12,7 C 11,1 C 88 % 0 lf 1017,9 hPa 0,0 l/m 0 min 0 min 0 W/m 16,7 km/h (3 Bft)
23.06.2015 22:12 12,7 C 11,1 C 89 % 0 lf 1018,0 hPa 0,0 l/m 0 min 0 min 0 W/m 14,6 km/h (3 Bft)
23.06.2015 22:14 12,7 C 11,1 C 89 % 2 lf 1017,9 hPa 0,0 l/m 0 min 0 min 0 W/m 14,6 km/h (3 Bft)
23.06.2015 22:16 12,7 C 11,1 C 89 % 1 lf 1018,0 hPa 0,0 l/m 0 min 2 min 0 W/m 16,7 km/h (3 Bft)
23.06.2015 22:18 12,6 C 11,1 C 89 % 1 lf 1017,9 hPa 0,0 l/m 0 min 0 min 0 W/m 18,8 km/h (3 Bft)
23.06.2015 22:20 12,6 C 11,1 C 89 % 0 lf 1018,1 hPa 0,0 l/m 0 min 0 min 0 W/m 14,6 km/h (3 Bft)
23.06.2015 22:22 12,6 C 11,1 C 89 % 0 lf 1018,2 hPa 0,0 l/m 0 min 0 min 0 W/m 10,5 km/h (2 Bft)
23.06.2015 22:24 12,6 C 11,1 C 90 % 5 lf 1018,2 hPa 0,0 l/m 0 min 0 min 0 W/m 14,6 km/h (3 Bft)
23.06.2015 22:26 12,6 C 10,6 C 90 % 6 lf 1018,2 hPa 0,0 l/m 0 min 2 min 0 W/m 14,6 km/h (3 Bft)
23.06.2015 22:28 12,6 C 10,6 C 90 % 10 lf 1018,3 hPa 0,0 l/m 0 min 0 min 0 W/m 16,7 km/h (3 Bft)
23.06.2015 22:30 12,5 C 10,6 C 90 % 10 lf 1018,2 hPa 0,0 l/m 0 min 0 min 0 W/m 16,7 km/h (3 Bft)
23.06.2015 22:32 12,5 C 10,6 C 90 % 12 lf 1018,3 hPa 0,0 l/m 0 min 0 min 0 W/m 16,7 km/h (3 Bft)
23.06.2015 22:34 12,5 C 10,6 C 90 % 12 lf 1018,3 hPa 0,0 l/m 0 min 2 min 0 W/m 6,3 km/h (2 Bft)
23.06.2015 22:36 12,5 C 10,6 C 90 % 15 lf 1018,2 hPa 0,0 l/m 0 min 2 min 0 W/m 12,6 km/h (3 Bft)
23.06.2015 22:38 12,5 C 10,6 C 90 % 15 lf 1018,3 hPa 0,0 l/m 0 min 2 min 0 W/m 10,5 km/h (2 Bft)
23.06.2015 22:40 12,4 C 10,6 C 90 % 15 lf 1018,4 hPa 0,0 l/m 0 min 0 min 0 W/m 8,4 km/h (2 Bft)
23.06.2015 22:42 12,4 C 10,6 C 91 % 15 lf 1018,4 hPa 0,0 l/m 0 min 0 min 0 W/m 14,6 km/h (3 Bft)
23.06.2015 22:44 12,4 C 10,6 C 91 % 15 lf 1018,4 hPa 0,0 l/m 0 min 2 min 0 W/m 10,5 km/h (2 Bft)
23.06.2015 22:46 12,4 C 10,6 C 91 % 15 lf 1018,4 hPa 0,0 l/m 0 min 2 min 0 W/m 10,5 km/h (2 Bft)
23.06.2015 22:48 12,4 C 10,6 C 91 % 15 lf 1018,5 hPa 0,0 l/m 0 min 0 min 0 W/m 10,5 km/h (2 Bft)
23.06.2015 22:50 12,4 C 10,6 C 91 % 15 lf 1018,4 hPa 0,0 l/m 0 min 2 min 0 W/m 16,7 km/h (3 Bft)
23.06.2015 22:52 12,4 C 10,6 C 91 % 15 lf 1018,5 hPa 0,0 l/m 0 min 2 min 0 W/m 14,6 km/h (3 Bft)
23.06.2015 22:54 12,4 C 10,6 C 91 % 15 lf 1018,4 hPa 0,0 l/m 0 min 0 min 0 W/m 18,8 km/h (3 Bft)
23.06.2015 22:56 12,4 C 10,6 C 91 % 15 lf 1018,5 hPa 0,0 l/m 0 min 0 min 0 W/m 14,6 km/h (3 Bft)
23.06.2015 22:58 12,3 C 10,6 C 91 % 15 lf 1018,4 hPa 0,0 l/m 0 min 0 min 0 W/m 14,6 km/h (3 Bft)
23.06.2015 23:00 12,3 C 10,6 C 92 % 15 lf 1018,5 hPa 0,0 l/m 0 min 0 min 0 W/m 10,5 km/h (2 Bft)
23.06.2015 23:02 12,3 C 10,6 C 92 % 15 lf 1018,5 hPa 0,0 l/m 0 min 0 min 0 W/m 10,5 km/h (2 Bft)
23.06.2015 23:04 12,3 C 10,6 C 92 % 15 lf 1018,5 hPa 0,0 l/m 0 min 0 min 0 W/m 18,8 km/h (3 Bft)
23.06.2015 23:06 12,2 C 10,6 C 92 % 15 lf 1018,5 hPa 0,0 l/m 0 min 0 min 0 W/m 18,8 km/h (3 Bft)
23.06.2015 23:08 12,2 C 10,6 C 92 % 15 lf 1018,5 hPa 0,0 l/m 0 min 0 min 0 W/m 18,8 km/h (3 Bft)
23.06.2015 23:10 12,2 C 10,6 C 92 % 15 lf 1018,5 hPa 0,0 l/m 0 min 0 min 0 W/m 16,7 km/h (3 Bft)
23.06.2015 23:12 12,2 C 10,6 C 92 % 15 lf 1018,5 hPa 0,0 l/m 0 min 0 min 0 W/m 8,4 km/h (2 Bft)
23.06.2015 23:14 12,2 C 10,6 C 92 % 15 lf 1018,6 hPa 0,0 l/m 0 min 0 min 0 W/m 8,4 km/h (2 Bft)
23.06.2015 23:16 12,1 C 10,6 C 92 % 15 lf 1018,6 hPa 0,0 l/m 0 min 0 min 0 W/m 14,6 km/h (3 Bft)
23.06.2015 23:18 12,1 C 10,6 C 92 % 15 lf 1018,6 hPa 0,0 l/m 0 min 0 min 0 W/m 18,8 km/h (3 Bft)
23.06.2015 23:20 12,1 C 10,6 C 92 % 15 lf 1018,6 hPa 0,0 l/m 0 min 0 min 0 W/m 8,4 km/h (2 Bft)
23.06.2015 23:22 12,1 C 10,6 C 92 % 15 lf 1018,6 hPa 0,0 l/m 0 min 0 min 0 W/m 10,5 km/h (2 Bft)
23.06.2015 23:24 12,1 C 10,6 C 92 % 15 lf 1018,6 hPa 0,0 l/m 0 min 0 min 0 W/m 16,7 km/h (3 Bft)
23.06.2015 23:26 12,0 C 10,6 C 93 % 15 lf 1018,7 hPa 0,0 l/m 0 min 0 min 0 W/m 10,5 km/h (2 Bft)
23.06.2015 23:28 12,0 C 10,6 C 93 % 15 lf 1018,7 hPa 0,0 l/m 0 min 0 min 0 W/m 14,6 km/h (3 Bft)
23.06.2015 23:30 12,0 C 10,6 C 93 % 15 lf 1018,7 hPa 0,0 l/m 0 min 0 min 0 W/m 10,5 km/h (2 Bft)
23.06.2015 23:32 12,0 C 10,6 C 93 % 15 lf 1018,7 hPa 0,0 l/m 0 min 0 min 0 W/m 12,6 km/h (3 Bft)
23.06.2015 23:34 12,0 C 10,6 C 93 % 14 lf 1018,7 hPa 0,0 l/m 0 min 0 min 0 W/m 14,6 km/h (3 Bft)
23.06.2015 23:36 11,9 C 10,6 C 93 % 14 lf 1018,7 hPa 0,0 l/m 0 min 0 min 0 W/m 10,5 km/h (2 Bft)
23.06.2015 23:38 11,9 C 10,6 C 93 % 14 lf 1018,8 hPa 0,0 l/m 0 min 0 min 0 W/m 10,5 km/h (2 Bft)
23.06.2015 23:40 11,9 C 10,6 C 93 % 13 lf 1018,8 hPa 0,0 l/m 0 min 0 min 0 W/m 12,6 km/h (3 Bft)
23.06.2015 23:42 11,9 C 10,6 C 93 % 12 lf 1018,8 hPa 0,0 l/m 0 min 0 min 0 W/m 10,5 km/h (2 Bft)
23.06.2015 23:44 11,9 C 10,6 C 93 % 12 lf 1018,8 hPa 0,0 l/m 0 min 0 min 0 W/m 12,6 km/h (3 Bft)
23.06.2015 23:46 11,9 C 10,6 C 93 % 11 lf 1018,8 hPa 0,0 l/m 0 min 0 min 0 W/m 10,5 km/h (2 Bft)
23.06.2015 23:48 11,9 C 10,6 C 93 % 10 lf 1018,9 hPa 0,0 l/m 0 min 0 min 0 W/m 10,5 km/h (2 Bft)
23.06.2015 23:50 11,9 C 10,6 C 93 % 8 lf 1018,8 hPa 0,0 l/m 0 min 0 min 0 W/m 12,6 km/h (3 Bft)
23.06.2015 23:52 11,9 C 10,6 C 93 % 7 lf 1018,9 hPa 0,0 l/m 0 min 0 min 0 W/m 10,5 km/h (2 Bft)
23.06.2015 23:54 11,8 C 10,6 C 93 % 6 lf 1018,8 hPa 0,0 l/m 0 min 0 min 0 W/m 4,2 km/h (1 Bft)
23.06.2015 23:56 11,8 C 10,6 C 93 % 4 lf 1018,8 hPa 0,0 l/m 0 min 0 min 0 W/m 10,5 km/h (2 Bft)
23.06.2015 23:58 11,8 C 10,6 C 93 % 4 lf 1018,8 hPa 0,0 l/m 0 min 0 min 0 W/m 6,3 km/h (2 Bft)
_ Min-Zeit 02:16 00:00 12:30 09:26 00:00 - - - - 23:54
Minimum _ 9,2 C 8,3 C 72 % 0 lf 1006,6 hPa - - - - 4,2 km/h (1 Bft)
_ Max-Zeit 12:16 12:08 07:40 00:00 23:48 05:52 07:22 05:06 12:03 19:36
Maximum _ 16,7 C 18,9 C 99 % 15 lf 1018,9 hPa 0,4 l/m 2 min 2 min 1109 W/m 41,8 km/h
NW (6 Bft)
Durchschnitt _ 12,4 C 11,0 C 91 % 9 lf 1012,2 hPa #2,6 l/m #2:16 h #4:27 h 177 W/m 16,1 km/h (3 Bft)
© 2015 W. Hausmann